Temp     Hi    Low   Out    Dew  Wind  Wind   Wind    Hi    Hi   Wind   Heat    THW   THSW                Rain  Solar   Solar Hi Solar   UV    UV    Hi     Heat    Cool    In     In    In     In           Wind  Wind    ISS   Arc.
  Date    Time     Out   Temp   Temp   Hum    Pt. Speed   Dir    Run Speed   Dir  Chill  Index  Index  Index   Bar    Rain  Rate   Rad.  Energy    Rad.  Index  Dose   UV     D-D     D-D    Temp   Hum    Dew   Heat     ET   Samp   Tx   Recept  Int.
---------------------------------------------------------------------------------------------------------------------------------------------------------------------------------------------------------------------------------------------------------
 1/12/22   0.15    7.3    7.6    7.3    74    3.0   4.8   NNW   1.21   8.0   NNW    6.8    7.1    6.6    2.7   993.0  0.00   0.0     0     0.00      0     0.0  0.00   0.0   0.115   0.000   14.4    57    6.0   13.6    0.00   303    1     88.6   15 
 1/12/22   0.30    7.6    7.7    7.3    74    3.3   4.8   NNW   1.21   9.7   NNW    7.1    7.4    6.9    3.0   993.0  0.00   0.0     0     0.00      0     0.0  0.00   0.0   0.112   0.000   14.4    58    6.3   13.7    0.00   352    1    100.0   15 
 1/12/22   0.45    7.9    7.9    7.6    74    3.5   4.8   NNW   1.21   9.7    NW    7.4    7.7    7.2    3.4   993.0  0.00   0.0     0     0.00      0     0.0  0.00   0.0   0.109   0.000   14.4    58    6.3   13.7    0.00   351    1    100.0   15 
 1/12/22   1.00    8.2    8.2    7.8    72    3.4   4.8   NNW   1.21   9.7   NNW    7.8    7.9    7.6    3.7   993.0  0.00   0.0     0     0.00      0     0.0  0.00   0.0   0.106   0.000   14.3    58    6.2   13.6    0.03   351    1    100.0   15 
 1/12/22   1.15    8.6    8.6    8.1    70    3.4   6.4   NNW   1.61  16.1   WNW    7.7    8.3    7.4    3.6   993.0  0.00   0.0     0     0.00      0     0.0  0.00   0.0   0.102   0.000   14.4    58    6.3   13.7    0.00   351    1    100.0   15 
 1/12/22   1.30    8.9    8.9    8.6    67    3.1   8.0    NW   2.01  19.3    NW    7.7    8.6    7.4    3.5  1002.3  0.00   0.0     0     0.00      0     0.0  0.00   0.0   0.098   0.000   14.4    58    6.3   13.7    0.00   351    1    100.0   15 
 1/12/22   1.45    8.7    8.9    8.7    67    2.9   4.8   NNW   1.21  14.5   NNW    8.3    8.3    8.0    4.1  1011.8  0.00   0.0     0     0.00      0     0.0  0.00   0.0   0.101   0.000   14.4    58    6.3   13.7    0.00   351    1    100.0   15 
 1/12/22   2.00    9.2    9.2    8.4    67    3.4   6.4    NW   1.61  19.3    NW    8.5    8.9    8.2    4.3  1008.5  0.00   0.0     0     0.00      0     0.0  0.00   0.0   0.095   0.000   14.4    58    6.3   13.7    0.03   349    1    100.0   15 
 1/12/22   2.15    9.6    9.7    9.2    65    3.3   4.8     N   1.21  14.5   NNW    9.3    9.2    8.9    5.1  1008.5  0.00   0.0     0     0.00      0     0.0  0.00   0.0   0.091   0.000   14.3    58    6.2   13.6    0.00   350    1    100.0   15 
 1/12/22   2.30    8.8    9.6    8.8    67    3.0   3.2   NNW   0.80   9.7     N    8.8    8.5    8.5    4.6   994.1  0.00   0.0     0     0.00      0     0.0  0.00   0.0   0.099   0.000   14.4    58    6.3   13.7    0.00   351    1    100.0   15 
 1/12/22   2.45    8.5    8.8    8.5    69    3.1   3.2   NNW   0.80   6.4   NNW    8.5    8.2    8.2    4.3   994.1  0.00   0.0     0     0.00      0     0.0  0.00   0.0   0.102   0.000   14.3    58    6.2   13.6    0.00   352    1    100.0   15 
 1/12/22   3.00    8.3    8.5    8.2    70    3.2   3.2   NNW   0.80   8.0   NNW    8.3    8.1    8.1    4.2   994.1  0.00   0.0     0     0.00      0     0.0  0.00   0.0   0.104   0.000   14.3    58    6.2   13.6    0.03   351    1    100.0   15 
 1/12/22   3.15    8.6    8.7    8.3    69    3.2   3.2   NNW   0.80  11.3   NNW    8.6    8.3    8.3    4.4   994.1  0.00   0.0     0     0.00      0     0.0  0.00   0.0   0.101   0.000   14.3    58    6.2   13.6    0.00   351    1    100.0   15 
 1/12/22   3.30    7.7    8.7    7.7    70    2.5   3.2     N   0.80   9.7    NW    7.7    7.4    7.4    3.5   994.1  0.00   0.0     0     0.00      0     0.0  0.00   0.0   0.111   0.000   14.3    58    6.2   13.6    0.00   350    1    100.0   15 
 1/12/22   3.45    7.9    7.9    7.4    71    3.0   3.2   NNW   0.80   8.0    NW    7.9    7.6    7.6    3.7  1006.1  0.00   0.0     0     0.00      0     0.0  0.00   0.0   0.109   0.000   14.3    58    6.2   13.6    0.00   349    1    100.0   15 
 1/12/22   4.00    8.1    8.2    7.9    71    3.2   4.8   NNW   1.21   9.7   NNW    7.7    7.8    7.4    3.6  1006.1  0.00   0.0     0     0.00      0     0.0  0.00   0.0   0.106   0.000   14.3    58    6.2   13.6    0.03   349    1    100.0   15 
 1/12/22   4.15    8.1    8.1    7.9    71    3.1   4.8   NNW   1.21   9.7    NW    7.7    7.8    7.4    3.5  1000.0  0.00   0.0     0     0.00      0     0.0  0.00   0.0   0.107   0.000   14.3    57    5.9   13.5    0.00   351    1    100.0   15 
 1/12/22   4.30    8.3    8.3    8.1    70    3.1   6.4   NNW   1.61  11.3   NNW    7.4    8.0    7.1    3.2  1000.0  0.00   0.0     0     0.00      0     0.0  0.00   0.0   0.105   0.000   14.3    57    5.9   13.5    0.00   350    1    100.0   15 
 1/12/22   4.45    8.1    8.3    7.9    71    3.2   4.8   NNW   1.21   9.7   NNW    7.7    7.8    7.4    3.6   990.9  0.00   0.0     0     0.00      0     0.0  0.00   0.0   0.106   0.000   14.3    57    5.9   13.4    0.00   351    1    100.0   15 
 1/12/22   5.00    8.0    8.1    7.7    72    3.3   4.8   NNW   1.21   8.0   NNW    7.6    7.8    7.3    3.4   990.9  0.00   0.0     0     0.00      0     0.0  0.00   0.0   0.108   0.000   14.3    57    5.9   13.4    0.03   350    1    100.0   15 
 1/12/22   5.15    7.8    8.1    7.8    72    3.1   3.2   NNW   0.80   9.7    NW    7.8    7.6    7.6    3.7   990.9  0.00   0.0     0     0.00      0     0.0  0.00   0.0   0.109   0.000   14.3    57    5.9   13.4    0.00   350    1    100.0   15 
 1/12/22   5.30    7.4    7.8    7.4    72    2.7   1.6   NNW   0.40   6.4   NNW    7.4    7.2    7.2    3.3   990.9  0.00   0.0     0     0.00      0     0.0  0.00   0.0   0.113   0.000   14.3    58    6.1   13.5    0.00   351    1    100.0   15 
 1/12/22   5.45    6.9    7.4    6.8    74    2.6   3.2   NNW   0.80   6.4   NNW    6.9    6.7    6.7    2.8   982.1  0.00   0.0     0     0.00      0     0.0  0.00   0.0   0.119   0.000   14.3    58    6.1   13.5    0.00   351    1    100.0   15 
 1/12/22   6.00    7.1    7.1    6.8    75    2.9   3.2   NNW   0.80   6.4   NNW    7.1    6.8    6.8    2.9   989.7  0.00   0.0     0     0.00      0     0.0  0.00   0.0   0.117   0.000   14.2    57    5.8   13.3    0.03   352    1    100.0   15 
 1/12/22   6.15    7.3    7.3    7.1    74    2.9   3.2   NNW   0.80   6.4   NNW    7.3    7.1    7.1    3.2   989.7  0.00   0.0     0     0.00      0     0.0  0.00   0.0   0.115   0.000   14.2    57    5.8   13.3    0.00   349    1    100.0   15 
 1/12/22   6.30    7.6    7.7    7.2    74    3.3   4.8   NNW   1.21   8.0   NNW    7.1    7.4    6.9    3.0   986.6  0.00   0.0     0     0.00      0     0.0  0.00   0.0   0.112   0.000   14.2    57    5.8   13.3    0.00   351    1    100.0   15 
 1/12/22   6.45    7.4    7.7    7.2    75    3.3   3.2   NNW   0.80   9.7   NNW    7.4    7.2    7.2    3.3   986.6  0.00   0.0     0     0.00      0     0.0  0.00   0.0   0.113   0.000   14.2    58    6.0   13.4    0.00   351    1    100.0   15 
 1/12/22   7.00    7.3    7.6    7.3    74    3.0   1.6   NNW   0.40   8.0   NNW    7.3    7.1    7.1    3.2   994.0  0.00   0.0     0     0.00      0     0.0  0.00   0.0   0.115   0.000   14.2    58    6.0   13.4    0.03   352    1    100.0   15 
 1/12/22   7.15    7.6    7.6    7.2    74    3.2   1.6   NNW   0.40   6.4   NNW    7.6    7.3    7.3    3.4   994.0  0.00   0.0     0     0.00      0     0.0  0.00   0.0   0.112   0.000   14.2    58    6.0   13.4    0.00   351    1    100.0   15 
 1/12/22   7.30    7.8    7.9    7.6    73    3.3   3.2   NNW   0.80   6.4    NW    7.8    7.6    7.6    3.8   994.0  0.00   0.0     3     0.06      7     0.0  0.00   0.0   0.109   0.000   14.1    58    6.0   13.3    0.00   351    1    100.0   15 
 1/12/22   7.45    7.4    7.8    7.4    73    2.9   0.0   NNW   0.00   4.8   NNW    7.4    7.2    7.2    3.4   994.0  0.00   0.0    11     0.24     16     0.0  0.00   0.0   0.114   0.000   14.1    58    6.0   13.3    0.00   350    1    100.0   15 
 1/12/22   8.00    7.6    7.6    7.4    74    3.3   1.6   NNW   0.40   4.8   NNW    7.6    7.4    7.4    3.8  1009.2  0.00   0.0    25     0.54     35     0.0  0.00   0.0   0.112   0.000   14.1    58    6.0   13.3    0.00   351    1    100.0   15 
 1/12/22   8.15    8.0    8.0    7.6    74    3.6   0.0   ---   0.00   0.0   ---    8.0    7.8    7.8    4.5  1009.2  0.00   0.0    50     1.08     67     0.0  0.00   0.0   0.108   0.000   14.1    58    6.0   13.3    0.00   352    1    100.0   15 
 1/12/22   8.30    8.7    8.7    8.0    72    3.9   0.0   NNW   0.00   4.8   NNW    8.7    8.4    8.4    5.7  1009.2  0.00   0.0    85     1.83    102     0.0  0.00   0.0   0.101   0.000   14.1    58    6.0   13.3    0.00   351    1    100.0   15 
 1/12/22   8.45    9.5    9.5    8.7    70    4.3   1.6    NE   0.40  14.5    NE    9.5    9.3    9.3    8.7  1009.2  0.00   0.0   125     2.69    146     0.0  0.00   0.0   0.092   0.000   14.1    59    6.2   13.3    0.00   351    1    100.0   15 
 1/12/22   9.00   10.4   10.4    9.5    66    4.3   8.0   NNE   2.01  20.9   NNE    9.4   10.1    9.1    9.4   985.0  0.00   0.0   167     3.59    186     0.0  0.00   0.0   0.083   0.000   14.1    59    6.2   13.3    0.05   351    1    100.0   15 
 1/12/22   9.15   10.6   10.6   10.4    66    4.5   8.0   NNE   2.01  19.3   NNE    9.7   10.2    9.3   10.4  1029.3  0.00   0.0   210     4.52    232     0.0  0.00   0.0   0.081   0.000   14.1    59    6.2   13.3    0.00   351    1    100.0   15 
 1/12/22   9.30   10.8   10.8   10.6    66    4.7   8.0   NNE   2.01  17.7   NNW    9.9   10.4    9.6   11.4  1029.3  0.00   0.0   253     5.44    269     0.0  0.00   0.0   0.079   0.000   14.2    59    6.3   13.4    0.00   350    1    100.0   15 
 1/12/22   9.45   11.1   11.1   10.8    65    4.8   8.0     N   2.01  19.3   NNW   10.3   10.7    9.9   12.1  1018.6  0.00   0.0   284     6.11    297     0.0  0.00   0.0   0.075   0.000   14.2    59    6.3   13.4    0.00   351    1    100.0   15 
 1/12/22  10.00   11.4   11.5   11.1    65    5.1   6.4   NNE   1.61  16.1   NNE   11.1   10.9   10.6   13.1  1018.6  0.00   0.0   311     6.69    323     0.0  0.00   0.0   0.072   0.000   14.3    59    6.4   13.5    0.15   351    1    100.0   15 
 1/12/22  10.15   11.9   11.9   11.5    64    5.3   6.4   NNE   1.61  14.5   NNE   11.6   11.3   11.0   13.7   980.8  0.00   0.0   335     7.20    345     0.0  0.00   0.0   0.067   0.000   14.3    59    6.4   13.5    0.00   352    1    100.0   15 
 1/12/22  10.30   11.8   11.9   11.8    64    5.2   8.0   NNE   2.01  14.5   NNE   11.2   11.3   10.6   13.4   980.8  0.00   0.0   356     7.65    364     0.0  0.00   0.0   0.068   0.000   14.3    59    6.4   13.6    0.00   351    1    100.0   15 
 1/12/22  10.45   12.1   12.1   11.8    64    5.5   6.4   NNE   1.61  14.5     N   11.8   11.6   11.3   14.2   980.8  0.00   0.0   374     8.04    383     0.0  0.00   0.0   0.065   0.000   14.3    59    6.4   13.6    0.00   351    1    100.0   15 
 1/12/22  11.00   12.3   12.3   12.1    62    5.2   6.4   NNW   1.61  11.3     N   12.0   11.7   11.4   14.3   980.8  0.00   0.0   389     8.36    394     0.0  0.00   0.0   0.063   0.000   14.4    59    6.5   13.7    0.20   322    1     94.2   15 
 1/12/22  11.15   12.6   12.6   12.4    62    5.5   8.0   NNE   2.01  19.3   NNE   12.0   11.9   11.3   14.3   980.8  0.00   0.0   403     8.67    408     0.0  0.00   0.0   0.060   0.000   14.6    58    6.4   13.8    0.00   349    1    100.0   15 
 1/12/22  11.30   12.6   12.6   12.6    61    5.3   8.0     N   2.01  16.1   NNW   12.1   11.9   11.4   14.6   980.8  0.00   0.0   412     8.86    417     0.0  0.00   0.0   0.060   0.000   14.6    58    6.4   13.8    0.00   352    1    100.0   15 
 1/12/22  11.45   12.8   12.8   12.6    60    5.2   8.0     N   2.01  17.7   NNW   12.3   12.1   11.6   14.9   980.8  0.00   0.0   419     9.01    422     0.0  0.00   0.0   0.058   0.000   14.7    58    6.5   13.9    0.00   349    1    100.0   15 
 1/12/22  12.00   12.8   12.8   12.7    60    5.3   8.0     N   2.01  17.7   NNE   12.3   12.1   11.6   15.0   986.3  0.00   0.0   423     9.10    425     0.0  0.00   0.0   0.057   0.000   14.8    57    6.3   13.9    0.25   351    1    100.0   15 
 1/12/22  12.15   12.9   13.1   12.8    59    5.1   6.4     N   1.61  16.1   NNE   12.8   12.2   12.1   15.5   986.3  0.00   0.0   424     9.12    425     0.0  0.00   0.0   0.056   0.000   14.9    57    6.4   14.1    0.00   351    1    100.0   15 
 1/12/22  12.30   13.1   13.1   12.9    60    5.5   6.4     N   1.61  12.9   NNW   12.9   12.3   12.2   15.6   986.3  0.00   0.0   425     9.14    434     0.0  0.00   0.0   0.055   0.000   15.1    57    6.6   14.2    0.00   352    1    100.0   15 
 1/12/22  12.45   13.1   13.2   13.1    60    5.5   6.4   NNE   1.61  14.5     N   12.9   12.4   12.2   15.7   974.5  0.00   0.0   423     9.10    434     0.0  0.00   0.0   0.054   0.000   15.2    56    6.5   14.4    0.00   348    1    100.0   15 
 1/12/22  13.00   13.1   13.2   13.1    59    5.2   8.0     N   2.01  16.1   NNE   12.6   12.3   11.9   15.3   974.5  0.00   0.0   406     8.73    411     0.0  0.00   0.0   0.055   0.000   15.3    56    6.5   14.4    0.25   350    1    100.0   15 
 1/12/22  13.15   13.1   13.2   13.1    60    5.5   8.0   NNE   2.01  14.5    NE   12.7   12.4   11.9   15.3   989.5  0.00   0.0   400     8.60    404     0.0  0.00   0.0   0.054   0.000   15.4    56    6.7   14.6    0.00   348    1    100.0   15 
 1/12/22  13.30   13.2   13.2   13.1    60    5.6   6.4     N   1.61  17.7   NNE   13.0   12.4   12.3   15.6   989.5  0.00   0.0   382     8.21    403     0.0  0.00   0.0   0.054   0.000   15.6    55    6.5   14.7    0.00   351    1    100.0   15 
 1/12/22  13.45   13.1   13.3   13.1    60    5.5   6.4     N   1.61  14.5     N   12.9   12.4   12.2   15.4   981.1  0.00   0.0   369     7.93    380     0.0  0.00   0.0   0.054   0.000   15.6    56    6.8   14.7    0.00   351    1    100.0   15 
 1/12/22  14.00   13.2   13.2   13.0    61    5.8   6.4   NNW   1.61  16.1     N   13.0   12.5   12.3   15.4   990.1  0.00   0.0   348     7.48    357     0.0  0.00   0.0   0.054   0.000   15.6    55    6.6   14.7    0.23   351    1    100.0   15 
 1/12/22  14.15   13.2   13.2   13.1    61    5.8   6.4     N   1.61  16.1     N   13.0   12.5   12.3   15.1   990.1  0.00   0.0   323     6.95    336     0.0  0.00   0.0   0.054   0.000   15.6    55    6.6   14.7    0.00   351    1    100.0   15 
 1/12/22  14.30   13.1   13.2   12.9    61    5.7   8.0    NW   2.01  17.7    NW   12.6   12.4   11.9   14.5   987.8  0.00   0.0   297     6.39    309     0.0  0.00   0.0   0.055   0.000   15.4    56    6.7   14.6    0.00   351    1    100.0   15 
 1/12/22  14.45   12.9   13.2   12.9    61    5.6   6.4    NW   1.61  14.5    NW   12.8   12.3   12.1   14.4   987.8  0.00   0.0   268     5.76    283     0.0  0.00   0.0   0.056   0.000   15.3    56    6.5   14.4    0.00   350    1    100.0   15 
 1/12/22  15.00   12.9   13.0   12.9    62    5.8   8.0    NW   2.01  16.1    NW   12.5   12.3   11.8   13.7   987.8  0.00   0.0   234     5.03    251     0.0  0.00   0.0   0.056   0.000   15.2    57    6.8   14.4    0.18   351    1    100.0   15 
 1/12/22  15.15   12.9   12.9   12.9    62    5.8   8.0    NW   2.01  14.5   NNW   12.4   12.2   11.7   13.1   978.1  0.00   0.0   192     4.13    211     0.0  0.00   0.0   0.057   0.000   15.1    57    6.6   14.3    0.00   350    1    100.0   15 
 1/12/22  15.30   12.8   12.9   12.8    62    5.7   4.8    NW   1.21  11.3    NW   12.8   12.2   12.2   12.8   978.1  0.00   0.0   149     3.20    169     0.0  0.00   0.0   0.057   0.000   15.1    57    6.6   14.2    0.00   351    1    100.0   15 
 1/12/22  15.45   12.6   12.9   12.6    63    5.7   4.8    NW   1.21  11.3   NNW   12.6   12.0   12.0   11.7   991.0  0.00   0.0    92     1.98    127     0.0  0.00   0.0   0.060   0.000   14.9    57    6.5   14.1    0.00   351    1    100.0   15 
 1/12/22  16.00   11.9   12.6   11.9    66    5.7   3.2    NW   0.80   6.4    NW   11.9   11.4   11.4   10.1   991.0  0.00   0.0    47     1.01     63     0.0  0.00   0.0   0.067   0.000   14.9    57    6.5   14.1    0.08   351    1    100.0   15 
 1/12/22  16.15   11.1   11.9   11.1    68    5.4   3.2   WNW   0.80   6.4    NW   11.1   10.7   10.7    8.9   991.0  0.00   0.0    27     0.58     49     0.0  0.00   0.0   0.076   0.000   14.9    58    6.7   14.2    0.00   349    1    100.0   15 
 1/12/22  16.30   10.6   11.1   10.6    69    5.2   0.0   WNW   0.00   4.8   WNW   10.6   10.3   10.3    7.3   991.0  0.00   0.0    13     0.28     16     0.0  0.00   0.0   0.080   0.000   14.8    58    6.6   14.0    0.00   350    1    100.0   15 
 1/12/22  16.45   10.5   10.6   10.5    70    5.3   0.0    NE   0.00   3.2    NE   10.5   10.2   10.2    7.2   991.0  0.00   0.0     6     0.13     11     0.0  0.00   0.0   0.082   0.000   14.8    58    6.6   14.0    0.00   350    1    100.0   15 
 1/12/22  17.00   10.0   10.5    9.9    71    5.0   0.0   ---   0.00   0.0   ---   10.0    9.8    9.8    6.7   968.5  0.00   0.0     0     0.00      0     0.0  0.00   0.0   0.087   0.000   14.7    58    6.5   13.9    0.03   350    1    100.0   15 
 1/12/22  17.15    9.2   10.0    9.2    72    4.4   0.0   ---   0.00   0.0   ---    9.2    9.0    9.0    5.8   968.5  0.00   0.0     0     0.00      0     0.0  0.00   0.0   0.095   0.000   14.7    59    6.8   13.9    0.00   350    1    100.0   15 
 1/12/22  17.30    8.4    9.2    8.4    73    3.9   1.6    NE   0.40   3.2    NE    8.4    8.2    8.2    5.1   968.5  0.00   0.0     0     0.00      0     0.0  0.00   0.0   0.103   0.000   14.7    59    6.8   13.9    0.00   350    1    100.0   15 
 1/12/22  17.45    7.8    8.4    7.8    75    3.7   0.0    NE   0.00   3.2    NE    7.8    7.6    7.6    4.4   996.8  0.00   0.0     0     0.00      0     0.0  0.00   0.0   0.109   0.000   14.6    59    6.7   13.8    0.00   350    1    100.0   15 
 1/12/22  18.00    7.5    7.8    7.4    77    3.7   1.6    NE   0.40   3.2    NE    7.5    7.3    7.3    4.2   996.8  0.00   0.0     0     0.00      0     0.0  0.00   0.0   0.113   0.000   14.6    58    6.4   13.8    0.03   350    1    100.0   15 
 1/12/22  18.15    7.4    7.5    7.4    78    3.8   0.0    NE   0.00   3.2    NE    7.4    7.2    7.2    4.1   985.8  0.00   0.0     0     0.00      0     0.0  0.00   0.0   0.114   0.000   14.6    58    6.4   13.8    0.00   351    1    100.0   15 
 1/12/22  18.30    7.0    7.4    7.0    78    3.4   1.6    NE   0.40   3.2    NE    7.0    6.8    6.8    3.7   985.8  0.00   0.0     0     0.00      0     0.0  0.00   0.0   0.118   0.000   14.6    58    6.4   13.8    0.00   351    1    100.0   15 
 1/12/22  18.45    6.6    7.0    6.5    80    3.4   1.6    NE   0.40   3.2    NE    6.6    6.4    6.4    3.3   985.8  0.00   0.0     0     0.00      0     0.0  0.00   0.0   0.123   0.000   14.4    58    6.3   13.7    0.00   351    1    100.0   15 
 1/12/22  19.00    6.5    6.6    6.4    81    3.5   1.6    NE   0.40   3.2    NE    6.5    6.4    6.4    3.2   985.8  0.00   0.0     0     0.00      0     0.0  0.00   0.0   0.123   0.000   14.4    58    6.3   13.7    0.03   352    1    100.0   15 
 1/12/22  19.15    6.6    6.6    6.3    81    3.6   1.6    NE   0.40   3.2    NE    6.6    6.5    6.5    3.3   976.9  0.00   0.0     0     0.00      0     0.0  0.00   0.0   0.122   0.000   14.3    58    6.2   13.6    0.00   351    1    100.0   15 
 1/12/22  19.30    6.3    6.6    6.3    81    3.3   0.0    NE   0.00   3.2    NE    6.3    6.2    6.2    3.1   976.9  0.00   0.0     0     0.00      0     0.0  0.00   0.0   0.125   0.000   14.3    58    6.2   13.6    0.00   351    1    100.0   15 
 1/12/22  19.45    6.3    6.3    6.2    82    3.5   0.0    NE   0.00   1.6    NE    6.3    6.2    6.2    3.1   976.9  0.00   0.0     0     0.00      0     0.0  0.00   0.0   0.125   0.000   14.3    58    6.2   13.6    0.00   351    1    100.0   15 
 1/12/22  20.00    6.5    6.5    6.3    82    3.6   1.6   NNE   0.40   3.2    NE    6.5    6.4    6.4    3.2  1008.6  0.00   0.0     0     0.00      0     0.0  0.00   0.0   0.123   0.000   14.3    58    6.1   13.5    0.00   351    1    100.0   15 
 1/12/22  20.15    6.3    6.4    6.2    82    3.4   1.6   NNE   0.40   3.2   NNE    6.3    6.2    6.2    3.0  1008.6  0.00   0.0     0     0.00      0     0.0  0.00   0.0   0.126   0.000   14.3    58    6.1   13.5    0.00   350    1    100.0   15 
 1/12/22  20.30    6.0    6.3    5.9    82    3.2   0.0   NNE   0.00   3.2   NNE    6.0    5.9    5.9    2.7  1008.6  0.00   0.0     0     0.00      0     0.0  0.00   0.0   0.128   0.000   14.3    58    6.1   13.5    0.00   351    1    100.0   15 
 1/12/22  20.45    5.6    6.1    5.6    83    2.9   0.0   NNE   0.00   1.6   NNE    5.6    5.5    5.5    2.3   989.2  0.00   0.0     0     0.00      0     0.0  0.00   0.0   0.133   0.000   14.2    58    6.0   13.4    0.00   351    1    100.0   15 
 1/12/22  21.00    5.8    6.3    5.6    83    3.2   1.6   NNE   0.40   1.6   NNE    5.8    5.7    5.7    2.6   989.2  0.00   0.0     0     0.00      0     0.0  0.00   0.0   0.130   0.000   14.2    58    6.0   13.4    0.00   351    1    100.0   15 
 1/12/22  21.15    5.3    5.8    5.2    83    2.7   0.0   NNE   0.00   3.2   NNE    5.3    5.2    5.2    2.0   989.2  0.00   0.0     0     0.00      0     0.0  0.00   0.0   0.135   0.000   14.1    58    6.0   13.3    0.00   349    1    100.0   15 
 1/12/22  21.30    5.8    5.9    5.3    84    3.3   1.6   NNE   0.40   3.2   NNE    5.8    5.7    5.7    2.5   989.2  0.00   0.0     0     0.00      0     0.0  0.00   0.0   0.131   0.000   14.1    58    6.0   13.3    0.00   349    1    100.0   15 
 1/12/22  21.45    6.1    6.2    5.7    84    3.6   0.0   NNE   0.00   3.2   NNE    6.1    6.1    6.1    2.9   989.5  0.00   0.0     0     0.00      0     0.0  0.00   0.0   0.127   0.000   14.1    58    6.0   13.3    0.00   350    1    100.0   15 
 1/12/22  22.00    5.8    6.2    5.8    83    3.2   0.0   NNE   0.00   1.6   NNE    5.8    5.7    5.7    2.6   989.5  0.00   0.0     0     0.00      0     0.0  0.00   0.0   0.130   0.000   14.1    58    6.0   13.3    0.00   351    1    100.0   15 
 1/12/22  22.15    5.7    5.8    5.4    83    3.0   0.0   NNE   0.00   1.6   NNE    5.7    5.6    5.6    2.4   989.5  0.00   0.0     0     0.00      0     0.0  0.00   0.0   0.132   0.000   14.1    58    6.0   13.3    0.00   351    1    100.0   15 
 1/12/22  22.30    5.3    5.7    5.3    83    2.7   0.0   NNE   0.00   1.6   NNE    5.3    5.2    5.2    2.0   989.5  0.00   0.0     0     0.00      0     0.0  0.00   0.0   0.135   0.000   14.1    58    6.0   13.3    0.00   350    1    100.0   15 
 1/12/22  22.45    5.3    5.3    5.3    83    2.7   0.0   NNE   0.00   1.6   NNE    5.3    5.2    5.2    2.0   989.5  0.00   0.0     0     0.00      0     0.0  0.00   0.0   0.135   0.000   14.1    58    6.0   13.3    0.00   351    1    100.0   15 
 1/12/22  23.00    5.9    5.9    5.3    84    3.4   1.6   NNE   0.40   3.2   NNE    5.9    5.8    5.8    2.7  1005.9  0.00   0.0     0     0.00      0     0.0  0.00   0.0   0.129   0.000   14.0    58    5.9   13.2    0.00   351    1    100.0   15 
 1/12/22  23.15    5.4    5.9    5.3    83    2.7   0.0   NNE   0.00   1.6   NNE    5.4    5.3    5.3    2.1   979.8  0.00   0.0     0     0.00      0     0.0  0.00   0.0   0.135   0.000   14.0    58    5.9   13.2    0.00   351    1    100.0   15 
 1/12/22  23.30    5.1    5.3    5.1    83    2.4   0.0   NNE   0.00   1.6   NNE    5.1    4.9    4.9    1.7   979.8  0.00   0.0     0     0.00      0     0.0  0.00   0.0   0.138   0.000   13.9    58    5.8   13.2    0.00   350    1    100.0   15 
 1/12/22  23.45    4.9    5.1    4.9    84    2.5   0.0   NNE   0.00   1.6   NNE    4.9    4.8    4.8    1.6   979.8  0.00   0.0     0     0.00      0     0.0  0.00   0.0   0.139   0.000   13.9    58    5.8   13.2    0.00   350    1    100.0   15 
 2/12/22  00.00    4.9    4.9    4.9    84    2.4   0.0   NNE   0.00   1.6   NNE    4.9    4.8    4.8    1.6   996.3  0.00   0.0     0     0.00      0     0.0  0.00   0.0   0.140   0.000   13.9    58    5.8   13.2    0.00   351    1    100.0   15 
 2/12/22   0.15    5.2    5.2    4.9    85    2.9   0.0    NE   0.00   1.6   NNE    5.2    5.1    5.1    1.9   996.3  0.00   0.0     0     0.00      0     0.0  0.00   0.0   0.137   0.000   13.9    58    5.8   13.2    0.00   349    1    100.0   15 
 2/12/22   0.30    5.1    5.3    5.1    84    2.6   0.0   NNE   0.00   3.2   NNE    5.1    4.9    4.9    1.7   996.3  0.00   0.0     0     0.00      0     0.0  0.00   0.0   0.138   0.000   13.8    58    5.7   13.1    0.00   350    1    100.0   15 
 2/12/22   0.45    4.8    5.1    4.8    85    2.5   0.0   NNE   0.00   3.2   NNE    4.8    4.7    4.7    1.4   996.3  0.00   0.0     0     0.00      0     0.0  0.00   0.0   0.141   0.000   13.8    58    5.7   13.1    0.00   352    1    100.0   15 
 2/12/22   1.00    4.6    4.9    4.6    85    2.3   0.0   NNE   0.00   1.6   NNE    4.6    4.5    4.5    1.3  1001.3  0.00   0.0     0     0.00      0     0.0  0.00   0.0   0.143   0.000   13.8    58    5.7   13.1    0.00   350    1    100.0   15 
 2/12/22   1.15    4.8    5.0    4.6    85    2.5   0.0   NNE   0.00   1.6   NNE    4.8    4.7    4.7    1.4  1001.3  0.00   0.0     0     0.00      0     0.0  0.00   0.0   0.141   0.000   13.8    58    5.7   13.1    0.00   350    1    100.0   15 
 2/12/22   1.30    4.7    4.8    4.6    85    2.4   1.6   NNE   0.40   1.6   NNE    4.7    4.6    4.6    1.3  1001.3  0.00   0.0     0     0.00      0     0.0  0.00   0.0   0.142   0.000   13.8    58    5.7   13.0    0.00   349    1    100.0   15 
 2/12/22   1.45    4.6    4.7    4.5    85    2.3   0.0   NNE   0.00   1.6   NNE    4.6    4.4    4.4    1.2  1001.3  0.00   0.0     0     0.00      0     0.0  0.00   0.0   0.144   0.000   13.8    58    5.7   13.0    0.00   350    1    100.0   15 
 2/12/22   2.00    4.8    4.8    4.6    86    2.6   0.0   NNE   0.00   1.6   NNE    4.8    4.7    4.7    1.4  1001.3  0.00   0.0     0     0.00      0     0.0  0.00   0.0   0.141   0.000   13.7    58    5.5   12.9    0.00   351    1    100.0   15 
 2/12/22   2.15    4.7    4.9    4.7    86    2.6   1.6   NNE   0.40   3.2   NNE    4.7    4.6    4.6    1.4   993.4  0.00   0.0     0     0.00      0     0.0  0.00   0.0   0.142   0.000   13.7    58    5.5   12.9    0.00   350    1    100.0   15 
 2/12/22   2.30    3.8    4.7    3.8    86    1.7   0.0   NNE   0.00   3.2   NNE    3.8    3.7    3.7    0.4   993.4  0.00   0.0     0     0.00      0     0.0  0.00   0.0   0.152   0.000   13.7    57    5.3   12.8    0.00   351    1    100.0   15 
 2/12/22   2.45    3.7    3.8    3.7    86    1.6   0.0   NNE   0.00   3.2   NNE    3.7    3.6    3.6    0.4   993.4  0.00   0.0     0     0.00      0     0.0  0.00   0.0   0.152   0.000   13.6    57    5.2   12.8    0.00   350    1    100.0   15 
 2/12/22   3.00    3.8    4.1    3.7    86    1.7   0.0   NNE   0.00   3.2   NNE    3.8    3.7    3.7    0.5   993.4  0.00   0.0     0     0.00      0     0.0  0.00   0.0   0.151   0.000   13.6    57    5.2   12.8    0.00   352    1    100.0   15 
 2/12/22   3.15    3.7    3.8    3.6    86    1.5   0.0   NNE   0.00   1.6   NNE    3.7    3.6    3.6    0.3  1011.0  0.00   0.0     0     0.00      0     0.0  0.00   0.0   0.153   0.000   13.6    57    5.2   12.8    0.00   350    1    100.0   15 
 2/12/22   3.30    4.2    4.2    3.7    87    2.2   0.0   NNE   0.00   1.6   NNE    4.2    4.1    4.1    0.8   995.1  0.00   0.0     0     0.00      0     0.0  0.00   0.0   0.148   0.000   13.6    57    5.2   12.8    0.00   351    1    100.0   15 
 2/12/22   3.45    4.1    4.6    4.1    87    2.1   0.0   NNE   0.00   1.6   NNE    4.1    3.9    3.9    0.7   995.1  0.00   0.0     0     0.00      0     0.0  0.00   0.0   0.149   0.000   13.6    57    5.2   12.8    0.00   351    1    100.0   15 
 2/12/22   4.00    3.9    4.1    3.9    87    2.0   0.0   NNE   0.00   1.6   NNE    3.9    3.8    3.8    0.6   995.1  0.00   0.0     0     0.00      0     0.0  0.00   0.0   0.150   0.000   13.6    57    5.2   12.7    0.00   352    1    100.0   15 
 2/12/22   4.15    3.8    4.3    3.8    87    1.8   0.0   NNE   0.00   3.2   NNE    3.8    3.7    3.7    0.4   995.1  0.00   0.0     0     0.00      0     0.0  0.00   0.0   0.152   0.000   13.6    57    5.2   12.7    0.00   349    1    100.0   15 
 2/12/22   4.30    4.6    4.6    3.7    87    2.6   0.0   NNE   0.00   1.6   NNE    4.6    4.5    4.5    1.3   995.1  0.00   0.0     0     0.00      0     0.0  0.00   0.0   0.143   0.000   13.6    57    5.2   12.7    0.00   351    1    100.0   15 
 2/12/22   4.45    4.3    4.7    4.1    87    2.4   0.0   NNE   0.00   1.6   NNE    4.3    4.2    4.2    1.0   995.1  0.00   0.0     0     0.00      0     0.0  0.00   0.0   0.146   0.000   13.4    57    5.1   12.6    0.00   350    1    100.0   15 
 2/12/22   5.00    5.2    5.2    4.3    87    3.2   0.0   NNE   0.00   1.6   NNE    5.2    5.2    5.2    2.0   991.6  0.00   0.0     0     0.00      0     0.0  0.00   0.0   0.137   0.000   13.4    57    5.1   12.6    0.00   351    1    100.0   15 
 2/12/22   5.15    5.7    5.8    5.2    87    3.7   0.0   NNE   0.00   1.6   NNE    5.7    5.6    5.6    2.4   999.4  0.00   0.0     0     0.00      0     0.0  0.00   0.0   0.132   0.000   13.6    58    5.4   12.8    0.00   351    1    100.0   15 
 2/12/22   5.30    5.8    5.8    5.6    87    3.8   0.0   NNE   0.00   1.6   NNE    5.8    5.7    5.7    2.6   999.4  0.00   0.0     0     0.00      0     0.0  0.00   0.0   0.131   0.000   13.4    58    5.3   12.7    0.00   351    1    100.0   15 
 2/12/22   5.45    5.7    5.8    5.7    87    3.7   0.0   ---   0.00   0.0   ---    5.7    5.7    5.7    2.5   999.4  0.00   0.0     0     0.00      0     0.0  0.00   0.0   0.131   0.000   13.4    58    5.3   12.7    0.00   350    1    100.0   15 
 2/12/22   6.00    6.3    6.3    5.7    87    4.3   0.0   NNE   0.00   1.6   NNE    6.3    6.3    6.3    3.1   999.4  0.00   0.0     0     0.00      0     0.0  0.00   0.0   0.126   0.000   13.6    58    5.4   12.8    0.00   350    1    100.0   15 
 2/12/22   6.15    6.9    7.0    6.3    87    4.9   0.0   ---   0.00   0.0   ---    6.9    6.9    6.9    3.8   999.4  0.00   0.0     0     0.00      0     0.0  0.00   0.0   0.119   0.000   13.6    59    5.7   12.8    0.00   352    1    100.0   15 
 2/12/22   6.30    6.6    7.1    6.5    86    4.4   0.0   NNE   0.00   3.2   NNE    6.6    6.5    6.5    3.3   989.0  0.00   0.0     0     0.00      0     0.0  0.00   0.0   0.123   0.000   13.6    59    5.7   12.8    0.00   351    1    100.0   15 
 2/12/22   6.45    6.9    6.9    6.4    87    4.9   0.0   ---   0.00   0.0   ---    6.9    6.9    6.9    3.8   989.0  0.00   0.0     0     0.00      0     0.0  0.00   0.0   0.119   0.000   13.6    59    5.7   12.8    0.00   350    1    100.0   15 
 2/12/22   7.00    7.4    7.4    6.9    87    5.4   0.0   ---   0.00   0.0   ---    7.4    7.4    7.4    4.3   989.0  0.00   0.0     0     0.00      0     0.0  0.00   0.0   0.113   0.000   13.6    60    5.9   12.8    0.00   350    1    100.0   15 
 2/12/22   7.15    7.6    7.7    7.4    87    5.6   0.0   NNE   0.00   1.6   NNE    7.6    7.6    7.6    4.5   999.9  0.00   0.0     0     0.00      0     0.0  0.00   0.0   0.112   0.000   13.6    60    5.9   12.8    0.00   352    1    100.0   15 
 2/12/22   7.30    7.7    8.0    7.6    86    5.5   0.0   NNE   0.00   1.6   NNE    7.7    7.7    7.7    4.6   999.9  0.00   0.0     0     0.00      0     0.0  0.00   0.0   0.111   0.000   13.6    60    5.9   12.8    0.00   351    1    100.0   15 
 2/12/22   7.45    7.8    7.9    7.5    86    5.6   0.0   NNE   0.00   1.6   NNE    7.8    7.8    7.8    4.7   999.9  0.00   0.0     0     0.00      0     0.0  0.00   0.0   0.109   0.000   13.6    60    5.9   12.8    0.00   351    1    100.0   15 
 2/12/22   8.00    8.3    8.3    7.8    86    6.1   1.6   NNE   0.40   4.8   NNE    8.3    8.3    8.3    5.3   985.6  0.00   0.0     0     0.00      0     0.0  0.00   0.0   0.104   0.000   13.6    61    6.2   12.9    0.00   350    1    100.0   15 
 2/12/22   8.15    8.6    8.7    8.3    85    6.2   0.0   NNE   0.00   3.2   NNE    8.6    8.6    8.6    5.6   985.6  0.00   0.0     6     0.13      9     0.0  0.00   0.0   0.101   0.000   13.6    61    6.2   12.9    0.00   351    1    100.0   15 
 2/12/22   8.30    8.4    8.8    8.4    84    5.9   0.0   NNE   0.00   3.2   NNE    8.4    8.4    8.4    5.4  1008.8  0.00   0.0     8     0.17      9     0.0  0.00   0.0   0.103   0.000   13.6    61    6.2   12.9    0.00   351    1    100.0   15 
 2/12/22   8.45    8.4    8.4    8.3    85    6.1   0.0   NNE   0.00   3.2   NNE    8.4    8.4    8.4    4.8  1008.8  0.00   0.0    13     0.28     21     0.0  0.00   0.0   0.103   0.000   13.6    61    6.2   12.9    0.00   350    1    100.0   15 
 2/12/22   9.00    8.6    8.6    8.3    85    6.2   0.0   ---   0.00   0.0   ---    8.6    8.6    8.6    7.1   995.2  0.00   0.0    36     0.77     46     0.0  0.00   0.0   0.102   0.000   13.6    62    6.4   12.9    0.00   350    1    100.0   15 
 2/12/22   9.15    9.0    9.0    8.5    85    6.6   0.0   NNE   0.00   1.6   NNE    9.0    9.0    9.0    8.1   995.2  0.00   0.0    64     1.38     81     0.0  0.00   0.0   0.097   0.000   13.6    62    6.4   12.9    0.00   351    1    100.0   15 
 2/12/22   9.30    9.8    9.8    9.0    85    7.4   0.0   NNE   0.00   1.6   NNE    9.8    9.8    9.8    9.7   995.2  0.00   0.0    99     2.13    204     0.0  0.00   0.0   0.089   0.000   13.6    62    6.5   12.9    0.00   350    1    100.0   15 
 2/12/22   9.45   10.2   10.2    9.8    85    7.8   0.0   ---   0.00   0.0   ---   10.2   10.3   10.3   10.3  1013.1  0.00   0.0   107     2.30    123     0.0  0.00   0.0   0.084   0.000   13.6    62    6.5   12.9    0.00   351    1    100.0   15 
 2/12/22  10.00   11.2   11.2   10.3    85    8.7   0.0   ---   0.00   0.0   ---   11.2   11.2   11.2   13.2  1005.4  0.00   0.0   235     5.05    376     0.0  0.00   0.0   0.075   0.000   13.6    62    6.5   12.9    0.05   347    1    100.0   15 
 2/12/22  10.15   11.9   11.9   11.2    83    9.1   0.0   ---   0.00   0.0   ---   11.9   11.8   11.8   12.8  1005.4  0.00   0.0   164     3.53    309     0.0  0.00   0.0   0.067   0.000   13.7    62    6.5   13.0    0.00   351    1    100.0   15 
 2/12/22  10.30   12.4   12.4   11.9    81    9.3   0.0   ---   0.00   0.0   ---   12.4   12.3   12.3   12.3  1005.4  0.00   0.0   114     2.45    125     0.0  0.00   0.0   0.061   0.000   13.7    62    6.5   13.0    0.00   351    1    100.0   15 
 2/12/22  10.45   12.6   12.6   12.4    79    9.0   0.0   ---   0.00   0.0   ---   12.6   12.4   12.4   11.9   999.6  0.00   0.0    90     1.94    104     0.0  0.00   0.0   0.060   0.000   13.7    62    6.5   13.0    0.00   350    1    100.0   15 
 2/12/22  11.00   12.8   12.8   12.6    78    9.0   0.0   NNE   0.00   3.2   NNE   12.8   12.6   12.6   12.2   999.6  0.00   0.0    95     2.04    113     0.0  0.00   0.0   0.058   0.000   13.7    63    6.7   13.1    0.05   350    1    100.0   15 
 2/12/22  11.15   12.8   12.9   12.8    78    9.1   0.0     E   0.00   3.2     E   12.8   12.6   12.6   11.3   999.6  0.00   0.0    56     1.20     70     0.0  0.00   0.0   0.057   0.000   13.7    63    6.7   13.1    0.00   350    1    100.0   15 
 2/12/22  11.30   12.8   12.9   12.7    78    9.0   0.0   ENE   0.00   3.2     E   12.8   12.6   12.6   11.3   999.6  0.00   0.0    59     1.27     69     0.0  0.00   0.0   0.058   0.000   13.8    63    6.9   13.2    0.00   351    1    100.0   15 
 2/12/22  11.45   12.6   12.8   12.6    78    8.9   0.0   ENE   0.00   3.2   ENE   12.6   12.4   12.4   10.6   999.6  0.00   0.0    31     0.67     42     0.0  0.00   0.0   0.060   0.000   13.8    63    6.9   13.2    0.00   351    1    100.0   15 
 2/12/22  12.00   12.6   12.6   12.5    79    9.0   1.6    NW   0.40   6.4    NW   12.6   12.4   12.4   11.3  1002.9  0.00   0.0    68     1.46     91     0.0  0.00   0.0   0.060   0.000   13.8    63    6.9   13.2    0.03   350    1    100.0   15 
 2/12/22  12.15   12.9   12.9   12.6    79    9.4   1.6    NW   0.40   4.8    NW   12.9   12.8   12.8   13.7  1002.9  0.00   0.0   184     3.96    350     0.0  0.00   0.0   0.056   0.000   13.8    63    6.9   13.2    0.00   349    1    100.0   15 
 2/12/22  12.30   13.6   13.6   12.9    77    9.7   1.6    NW   0.40   8.0   WNW   13.6   13.4   13.4   16.5  1002.9  0.00   0.0   342     7.35    538     0.0  0.00   0.0   0.049   0.000   13.8    63    6.9   13.2    0.00   351    1    100.0   15 
 2/12/22  12.45   14.3   14.3   13.6    70    8.9   3.2     S   0.80  14.5     S   14.3   13.9   13.9   15.6  1002.9  0.00   0.0   237     5.10    302     0.0  0.00   0.0   0.042   0.000   13.9    63    7.0   13.3    0.00   352    1    100.0   15 
 2/12/22  13.00   14.8   14.8   14.3    69    9.1   6.4     S   1.61  17.7     S   14.8   14.3   14.3   16.1  1002.9  0.00   0.0   239     5.14    547     0.0  0.00   0.0   0.037   0.000   13.9    63    7.0   13.3    0.15   351    1    100.0   15 
 2/12/22  13.15   14.9   15.2   14.7    66    8.6   6.4     S   1.61  22.5     S   14.9   14.4   14.4   16.9  1002.9  0.00   0.0   297     6.39    531     0.0  0.00   0.0   0.036   0.000   14.1    63    7.2   13.5    0.00   350    1    100.0   15 
 2/12/22  13.30   14.4   14.9   14.4    69    8.8   8.0   SSW   2.01  17.7     S   14.2   14.0   13.8   14.6  1002.9  0.00   0.0   175     3.76    294     0.0  0.00   0.0   0.041   0.000   14.0    63    7.1   13.4    0.00   350    1    100.0   15 
 2/12/22  13.45   15.1   15.1   14.4    67    9.0   6.4   SSW   1.61  19.3     S   15.1   14.6   14.6   17.9  1002.9  0.00   0.0   378     8.13    506     0.0  0.00   0.0   0.034   0.000   14.2    63    7.2   13.6    0.00   350    1    100.0   15 
 2/12/22  14.00   14.9   15.1   14.9    66    8.6   4.8   SSW   1.21  17.7   SSW   14.9   14.4   14.4   17.7   990.0  0.00   0.0   359     7.72    410     0.0  0.00   0.0   0.035   0.000   14.3    62    7.1   13.7    0.18   350    1    100.0   15 
 2/12/22  14.15   14.6   14.9   14.5    68    8.8   4.8     S   1.21  16.1     S   14.6   14.1   14.1   15.8   990.0  0.00   0.0   218     4.69    334     0.0  0.00   0.0   0.039   0.000   14.3    62    7.1   13.7    0.00   351    1    100.0   15 
 2/12/22  14.30   15.0   15.1   14.7    66    8.7   3.2     S   0.80  16.1   SSW   15.0   14.5   14.5   17.2   990.0  0.00   0.0   296     6.36    315     0.0  0.00   0.0   0.035   0.000   14.3    62    7.1   13.6    0.00   350    1    100.0   15 
 2/12/22  14.45   14.9   15.0   14.8    66    8.6   4.8     S   1.21  16.1     S   14.9   14.4   14.4   16.9   999.3  0.00   0.0   282     6.06    299     0.0  0.00   0.0   0.036   0.000   14.3    63    7.3   13.7    0.00   350    1    100.0   15 
 2/12/22  15.00   14.4   15.0   14.4    67    8.4   1.6   SSW   0.40   9.7   SSW   14.4   13.9   13.9   14.1   999.3  0.00   0.0   114     2.45    281     0.0  0.00   0.0   0.041   0.000   14.2    63    7.2   13.6    0.13   352    1    100.0   15 
 2/12/22  15.15   14.1   14.4   14.1    69    8.5   0.0   ---   0.00   0.0   ---   14.1   13.7   13.7   13.1   986.6  0.00   0.0    77     1.66     90     0.0  0.00   0.0   0.044   0.000   14.1    63    7.2   13.5    0.00   350    1    100.0   15 
 2/12/22  15.30   14.2   14.2   14.1    69    8.6   0.0   ---   0.00   0.0   ---   14.2   13.7   13.7   13.1  1005.5  0.00   0.0    71     1.53     77     0.0  0.00   0.0   0.043   0.000   14.1    63    7.2   13.5    0.00   350    1    100.0   15 
 2/12/22  15.45   14.5   14.5   14.2    68    8.7   0.0   ---   0.00   0.0   ---   14.5   14.0   14.0   13.9  1005.5  0.00   0.0   102     2.19    132     0.0  0.00   0.0   0.040   0.000   14.1    63    7.2   13.5    0.00   351    1    100.0   15 
 2/12/22  16.00   14.4   14.6   14.3    69    8.8   0.0   ---   0.00   0.0   ---   14.4   13.9   13.9   12.5   996.2  0.00   0.0    36     0.77     77     0.0  0.00   0.0   0.041   0.000   14.1    63    7.2   13.5    0.05   350    1    100.0   15 
 2/12/22  16.15   14.2   14.4   14.2    69    8.6   1.6    SE   0.40  11.3    SE   14.2   13.8   13.8   11.7   996.2  0.00   0.0    12     0.26     14     0.0  0.00   0.0   0.043   0.000   14.1    63    7.2   13.5    0.00   350    1    100.0   15 
 2/12/22  16.30   14.2   14.2   14.2    69    8.6   4.8   SSE   1.21  16.1    SE   14.2   13.7   13.7   11.0   988.2  0.00   0.0     9     0.19      9     0.0  0.00   0.0   0.043   0.000   14.0    63    7.1   13.4    0.00   351    1    100.0   15 
 2/12/22  16.45   14.1   14.2   14.1    69    8.5   3.2   SSE   0.80   9.7     E   14.1   13.7   13.7   10.8   988.2  0.00   0.0     2     0.04      7     0.0  0.00   0.0   0.044   0.000   14.0    63    7.1   13.4    0.00   350    1    100.0   15 
 2/12/22  17.00   14.1   14.2   14.1    69    8.5   3.2   ESE   0.80  11.3   SSE   14.1   13.6   13.6   10.7   988.2  0.00   0.0     0     0.00      0     0.0  0.00   0.0   0.045   0.000   13.9    63    7.0   13.3    0.03   350    1    100.0   15 
 2/12/22  17.15   14.1   14.1   13.9    69    8.5   3.2    SE   0.80  11.3    SE   14.1   13.7   13.7   10.8   999.8  0.00   0.0     0     0.00      0     0.0  0.00   0.0   0.044   0.000   13.9    64    7.2   13.3    0.00   350    1    100.0   15 
 2/12/22  17.30   13.7   14.1   13.7    69    8.1   0.0   ESE   0.00   6.4   ENE   13.7   13.3   13.3   10.3   999.8  0.00   0.0     0     0.00      0     0.0  0.00   0.0   0.048   0.000   13.9    64    7.2   13.3    0.00   351    1    100.0   15 
 2/12/22  17.45   13.6   13.8   13.6    69    8.0   0.0     E   0.00   3.2   ENE   13.6   13.2   13.2   10.2   999.8  0.00   0.0     0     0.00      0     0.0  0.00   0.0   0.049   0.000   13.9    64    7.2   13.3    0.00   351    1    100.0   15 
 2/12/22  18.00   13.0   13.6   13.0    71    7.9   0.0     E   0.00   3.2     E   13.0   12.6   12.6    9.7   999.8  0.00   0.0     0     0.00      0     0.0  0.00   0.0   0.056   0.000   13.9    64    7.2   13.3    0.03   350    1    100.0   15 
 2/12/22  18.15   12.3   13.0   12.3    74    7.8   0.0     E   0.00   3.2     E   12.3   12.0   12.0    9.1   999.8  0.00   0.0     0     0.00      0     0.0  0.00   0.0   0.063   0.000   13.9    64    7.2   13.3    0.00   349    1    100.0   15 
 2/12/22  18.30   11.8   12.3   11.8    75    7.5   0.0   ENE   0.00   3.2     E   11.8   11.5   11.5    8.6   999.8  0.00   0.0     0     0.00      0     0.0  0.00   0.0   0.068   0.000   13.9    64    7.2   13.3    0.00   350    1    100.0   15 
 2/12/22  18.45   11.4   11.8   11.3    77    7.5   0.0   NNE   0.00   3.2   ENE   11.4   11.2   11.2    8.2   999.8  0.00   0.0     0     0.00      0     0.0  0.00   0.0   0.072   0.000   13.8    64    7.1   13.2    0.00   351    1    100.0   15 
 2/12/22  19.00   11.1   11.4   11.1    78    7.4   0.0   NNW   0.00   4.8     N   11.1   10.9   10.9    8.0   999.8  0.00   0.0     0     0.00      0     0.0  0.00   0.0   0.075   0.000   13.8    64    7.1   13.2    0.03   351    1    100.0   15 
 2/12/22  19.15   10.8   11.1   10.8    78    7.1   1.6   NNW   0.40   3.2   NNW   10.8   10.7   10.7    7.7   999.8  0.00   0.0     0     0.00      0     0.0  0.00   0.0   0.078   0.000   13.8    64    7.1   13.2    0.00   351    1    100.0   15 
 2/12/22  19.30   11.1   11.1   10.8    78    7.4   0.0     N   0.00   3.2     N   11.1   10.9   10.9    7.9   999.8  0.00   0.0     0     0.00      0     0.0  0.00   0.0   0.076   0.000   13.8    64    7.1   13.2    0.00   350    1    100.0   15 
 2/12/22  19.45   12.2   12.2   11.1    77    8.3   1.6    SW   0.40   6.4   SSW   12.2   11.9   11.9    9.0   999.8  0.00   0.0     0     0.00      0     0.0  0.00   0.0   0.064   0.000   13.8    64    7.1   13.2    0.00   349    1    100.0   15 
 2/12/22  20.00   13.9   13.9   12.2    78   10.2   4.8     E   1.21  20.9   SSE   13.9   13.7   13.7   10.9   991.9  0.00   0.0     0     0.00      0     0.0  0.00   0.0   0.046   0.000   13.8    64    7.1   13.2    0.03   350    1    100.0   15 
 2/12/22  20.15   13.9   14.0   13.9    78   10.2   9.7   ESE   2.41  20.9    SE   13.4   13.7   13.2   10.4   991.9  0.00   0.0     0     0.00      0     0.0  0.00   0.0   0.046   0.000   13.8    64    7.1   13.2    0.00   352    1    100.0   15 
 2/12/22  20.30   13.9   14.1   13.9    79   10.4   8.0   ESE   2.01  20.9     E   13.6   13.8   13.4   10.7   991.9  0.00   0.0     0     0.00      0     0.0  0.00   0.0   0.046   0.000   13.8    65    7.4   13.3    0.00   351    1    100.0   15 
 2/12/22  20.45   13.9   13.9   13.9    79   10.3   6.4   ESE   1.61  19.3    SE   13.9   13.7   13.7   10.9   991.9  0.00   0.0     0     0.00      0     0.0  0.00   0.0   0.046   0.000   13.8    65    7.4   13.3    0.00   350    1    100.0   15 
 2/12/22  21.00   13.6   13.9   13.6    79   10.0   8.0   ESE   2.01  22.5    SE   13.2   13.3   12.9   10.1   991.9  0.00   0.0     0     0.00      0     0.0  0.00   0.0   0.050   0.000   13.8    65    7.4   13.3    0.03   351    1    100.0   15 
 2/12/22  21.15   13.7   13.7   13.5    79   10.1   6.4     E   1.61  19.3   SSE   13.6   13.5   13.4   10.7   991.9  0.00   0.0     0     0.00      0     0.0  0.00   0.0   0.049   0.000   13.8    65    7.4   13.3    0.00   350    1    100.0   15 
 2/12/22  21.30   13.2   13.8   13.2    80    9.8   9.7   ESE   2.41  19.3     E   12.6   13.1   12.4    9.5   991.9  0.00   0.0     0     0.00      0     0.0  0.00   0.0   0.053   0.000   13.8    65    7.4   13.3    0.00   351    1    100.0   15 
 2/12/22  21.45   13.1   13.2   13.0    81    9.9   6.4   ESE   1.61  19.3     E   12.9   12.9   12.7    9.8   991.9  0.00   0.0     0     0.00      0     0.0  0.00   0.0   0.055   0.000   13.8    65    7.4   13.3    0.00   351    1    100.0   15 
 2/12/22  22.00   12.9   13.1   12.9    81    9.8   8.0   ESE   2.01  22.5   ESE   12.5   12.8   12.3    9.4  1005.3  0.00   0.0     0     0.00      0     0.0  0.00   0.0   0.056   0.000   13.8    65    7.4   13.3    0.03   351    1    100.0   15 
 2/12/22  22.15   12.7   12.9   12.7    81    9.5   6.4     E   1.61  17.7     E   12.5   12.6   12.3    9.4  1005.3  0.00   0.0     0     0.00      0     0.0  0.00   0.0   0.058   0.000   13.8    66    7.6   13.3    0.00   351    1    100.0   15 
 2/12/22  22.30   12.3   12.7   12.3    83    9.5   4.8   ESE   1.21  19.3   ESE   12.3   12.2   12.2    9.3  1001.8  0.25   0.0     0     0.00      0     0.0  0.00   0.0   0.063   0.000   13.9    66    7.7   13.4    0.00   352    1    100.0   15 
 2/12/22  22.45   12.2   12.3   12.2    84    9.6   8.0     E   2.01  25.7     E   11.6   12.2   11.6    8.7  1007.5  0.51   1.8     0     0.00      0     0.0  0.00   0.0   0.064   0.000   13.9    66    7.7   13.4    0.00   350    1    100.0   15 
 2/12/22  23.00   11.9   12.2   11.9    85    9.5   8.0     E   2.01  20.9     E   11.3   11.9   11.2    8.3  1007.5  0.51   5.6     0     0.00      0     0.0  0.00   0.0   0.067   0.000   13.8    66    7.6   13.3    0.03   350    1    100.0   15 
 2/12/22  23.15   11.9   11.9   11.7    85    9.4   8.0     E   2.01  20.9     E   11.2   11.8   11.2    8.3  1007.5  0.00   0.0     0     0.00      0     0.0  0.00   0.0   0.067   0.000   13.9    66    7.7   13.4    0.00   350    1    100.0   15 
 2/12/22  23.30   12.0   12.1   11.9    85    9.6   6.4     E   1.61  17.7     E   11.7   11.9   11.6    8.7  1010.0  0.00   0.0     0     0.00      0     0.0  0.00   0.0   0.066   0.000   13.8    67    7.8   13.3    0.00   352    1    100.0   15 
 2/12/22  23.45   12.0   12.0   11.9    86    9.7   4.8     E   1.21  19.3   ENE   12.0   11.9   11.9    9.1  1010.0  0.51   4.3     0     0.00      0     0.0  0.00   0.0   0.066   0.000   13.9    67    7.9   13.4    0.00   351    1    100.0   15 
 3/12/22  00.00   12.0   12.0   11.9    86    9.7   4.8   ENE   1.21  22.5    NE   12.0   11.9   11.9    9.1  1010.0  1.02   4.1     0     0.00      0     0.0  0.00   0.0   0.066   0.000   13.9    67    7.9   13.4    0.03   351    1    100.0   15 
 3/12/22   0.15   12.3   12.3   12.0    86   10.0   6.4     E   1.61  29.0   ESE   12.0   12.2   11.9    9.2  1022.9  0.51   4.8     0     0.00      0     0.0  0.00   0.0   0.063   0.000   13.8    67    7.8   13.3    0.00   348    1    100.0   15 
 3/12/22   0.30   12.3   12.3   12.3    86   10.0   6.4   ESE   1.61  14.5    SE   12.0   12.2   11.9    9.2  1022.9  0.00   0.0     0     0.00      0     0.0  0.00   0.0   0.063   0.000   13.9    67    7.9   13.4    0.00   351    1    100.0   15 
 3/12/22   0.45   12.2   12.3   12.2    86    9.9   1.6     E   0.40   8.0     E   12.2   12.2   12.2    9.3  1011.6  0.00   0.0     0     0.00      0     0.0  0.00   0.0   0.064   0.000   13.9    67    7.9   13.4    0.00   350    1    100.0   15 
 3/12/22   1.00   12.1   12.2   12.1    86    9.8   3.2     E   0.80  16.1   ESE   12.1   12.1   12.1    9.2  1011.6  0.00   0.0     0     0.00      0     0.0  0.00   0.0   0.065   0.000   13.9    67    7.9   13.4    0.00   350    1    100.0   15 
 3/12/22   1.15   11.9   12.1   11.9    86    9.6   0.0   SSE   0.00   4.8   ESE   11.9   11.8   11.8    8.9  1011.6  0.00   0.0     0     0.00      0     0.0  0.00   0.0   0.067   0.000   13.9    67    7.9   13.4    0.03   351    1    100.0   15 
 3/12/22   1.30   12.0   12.0   11.8    86    9.7   3.2     E   0.80  16.1   ESE   12.0   11.9   11.9    9.1  1016.6  0.00   0.0     0     0.00      0     0.0  0.00   0.0   0.066   0.000   13.8    67    7.8   13.3    0.00   350    1    100.0   15 
 3/12/22   1.45   12.2   12.2   11.9    86    9.9   3.2     E   0.80  16.1   ESE   12.2   12.2   12.2    9.3  1016.6  0.00   0.0     0     0.00      0     0.0  0.00   0.0   0.064   0.000   13.9    67    7.9   13.4    0.00   351    1    100.0   15 
 3/12/22   2.00   12.7   12.7   12.2    85   10.3   4.8   ESE   1.21  16.1   ESE   12.7   12.7   12.7    9.8  1016.6  0.00   0.0     0     0.00      0     0.0  0.00   0.0   0.058   0.000   13.9    67    7.9   13.4    0.03   350    1    100.0   15 
 3/12/22   2.15   13.2   13.2   12.7    84   10.5   8.0   ESE   2.01  32.2   ESE   12.7   13.1   12.7    9.8  1003.8  0.00   0.0     0     0.00      0     0.0  0.00   0.0   0.054   0.000   13.8    67    7.8   13.3    0.00   351    1    100.0   15 
 3/12/22   2.30   13.5   13.5   13.2    83   10.7  12.9     E   3.22  27.4    SE   12.3   13.4   12.2    9.6  1003.8  0.00   0.0     0     0.00      0     0.0  0.00   0.0   0.050   0.000   13.9    67    7.9   13.4    0.00   351    1    100.0   15 
 3/12/22   2.45   13.8   13.8   13.4    82   10.8  11.3   ESE   2.82  29.0   ESE   13.0   13.7   12.9   10.2  1003.8  0.00   0.0     0     0.00      0     0.0  0.00   0.0   0.047   0.000   13.9    67    7.9   13.4    0.00   351    1    100.0   15 
 3/12/22   3.00   13.8   13.8   13.7    82   10.8   8.0     E   2.01  30.6     E   13.4   13.7   13.3   10.5  1003.8  0.00   0.0     0     0.00      0     0.0  0.00   0.0   0.047   0.000   13.9    67    7.9   13.4    0.03   349    1    100.0   15 
 3/12/22   3.15   13.6   13.8   13.6    82   10.5  11.3     E   2.82  27.4    SE   12.7   13.4   12.6    9.9  1003.8  0.00   0.0     0     0.00      0     0.0  0.00   0.0   0.050   0.000   13.9    67    7.9   13.4    0.00   351    1    100.0   15 
 3/12/22   3.30   13.7   13.7   13.6    82   10.6  11.3   ESE   2.82  27.4    SE   12.8   13.6   12.7   10.0  1003.8  0.00   0.0     0     0.00      0     0.0  0.00   0.0   0.049   0.000   13.9    67    7.9   13.4    0.00   350    1    100.0   15 
 3/12/22   3.45   13.8   13.8   13.7    82   10.8  11.3   ESE   2.82  27.4    SE   13.0   13.7   12.9   10.2  1003.8  0.00   0.0     0     0.00      0     0.0  0.00   0.0   0.047   0.000   13.9    68    8.1   13.4    0.00   348    1    100.0   15 
 3/12/22   4.00   13.8   13.8   13.7    82   10.8  12.9   ESE   3.22  27.4   ESE   12.7   13.7   12.6    9.9  1003.8  0.00   0.0     0     0.00      0     0.0  0.00   0.0   0.047   0.000   13.8    68    8.0   13.3    0.03   351    1    100.0   15 
 3/12/22   4.15   13.8   13.8   13.8    82   10.8  14.5   ESE   3.62  35.4   ESE   12.2   13.7   12.1    9.5   988.9  0.00   0.0     0     0.00      0     0.0  0.00   0.0   0.047   0.000   13.9    68    8.1   13.4    0.00   350    1    100.0   15 
 3/12/22   4.30   13.9   13.9   13.8    81   10.7  11.3   ESE   2.82  29.0    SE   13.1   13.7   12.9   10.2  1020.9  0.00   0.0     0     0.00      0     0.0  0.00   0.0   0.046   0.000   13.9    68    8.1   13.4    0.00   351    1    100.0   15 
 3/12/22   4.45   13.8   14.0   13.8    80   10.4  14.5   ESE   3.62  27.4    SE   12.2   13.6   12.0    9.4  1020.9  0.00   0.0     0     0.00      0     0.0  0.00   0.0   0.047   0.000   13.9    68    8.1   13.4    0.00   351    1    100.0   15 
 3/12/22   5.00   13.1   13.8   13.1    83   10.3  11.3   ESE   2.82  25.7    SE   12.2   13.0   12.1    9.3  1020.9  1.27   6.1     0     0.00      0     0.0  0.00   0.0   0.054   0.000   13.9    68    8.1   13.4    0.03   350    1    100.0   15 
 3/12/22   5.15   13.3   13.3   13.1    84   10.6  12.9   ESE   3.22  30.6   ESE   12.0   13.2   11.9    9.3  1020.9  0.25   5.8     0     0.00      0     0.0  0.00   0.0   0.053   0.000   13.9    68    8.1   13.4    0.00   351    1    100.0   15 
 3/12/22   5.30   13.4   13.4   13.3    84   10.8  11.3     E   2.82  27.4   ESE   12.6   13.4   12.5    9.8  1020.9  0.00   0.0     0     0.00      0     0.0  0.00   0.0   0.051   0.000   13.9    68    8.1   13.4    0.00   350    1    100.0   15 
 3/12/22   5.45   13.5   13.6   13.4    84   10.8  12.9   ESE   3.22  25.7   ESE   12.3   13.4   12.2    9.6  1020.9  0.00   0.0     0     0.00      0     0.0  0.00   0.0   0.050   0.000   14.0    68    8.2   13.5    0.00   351    1    100.0   15 
 3/12/22   6.00   13.6   13.6   13.5    84   11.0  11.3   ESE   2.82  29.0     E   12.8   13.6   12.7   10.0  1020.9  0.51   4.3     0     0.00      0     0.0  0.00   0.0   0.049   0.000   14.0    68    8.2   13.5    0.03   351    1    100.0   15 
 3/12/22   6.15   13.8   13.8   13.6    84   11.1  12.9   ESE   3.22  37.0     E   12.6   13.7   12.6   10.0  1020.9  0.00   0.0     0     0.00      0     0.0  0.00   0.0   0.047   0.000   14.0    68    8.2   13.5    0.00   350    1    100.0   15 
 3/12/22   6.30   14.0   14.0   13.8    83   11.2  12.9   ESE   3.22  32.2   ESE   12.8   13.9   12.7   10.2  1004.8  0.00   0.0     0     0.00      0     0.0  0.00   0.0   0.045   0.000   13.9    68    8.1   13.4    0.00   351    1    100.0   15 
 3/12/22   6.45   14.0   14.1   13.9    82   11.0  12.9   ESE   3.22  30.6    SE   12.8   13.9   12.7   10.1  1004.8  0.00   0.0     0     0.00      0     0.0  0.00   0.0   0.045   0.000   13.9    69    8.3   13.5    0.00   350    1    100.0   15 
 3/12/22   7.00   14.2   14.2   13.9    82   11.2  12.9   ESE   3.22  27.4    SE   13.1   14.1   13.0   10.4  1004.8  0.00   0.0     0     0.00      0     0.0  0.00   0.0   0.043   0.000   13.9    69    8.3   13.5    0.03   351    1    100.0   15 
 3/12/22   7.15   14.3   14.3   14.2    81   11.1  16.1   ESE   4.02  32.2    SE   12.4   14.2   12.3    9.9  1025.0  0.00   0.0     0     0.00      0     0.0  0.00   0.0   0.042   0.000   14.0    69    8.4   13.6    0.00   351    1    100.0   15 
 3/12/22   7.30   14.4   14.4   14.3    81   11.2  16.1   ESE   4.02  35.4   ESE   12.6   14.3   12.4   10.1  1010.5  0.00   0.0     0     0.00      0     0.0  0.00   0.0   0.041   0.000   13.9    69    8.3   13.5    0.00   350    1    100.0   15 
 3/12/22   7.45   14.7   14.8   14.4    81   11.5  12.9   ESE   3.22  37.0     E   13.7   14.6   13.6   11.1  1001.3  0.00   0.0     0     0.00      0     0.0  0.00   0.0   0.038   0.000   14.0    69    8.4   13.6    0.00   350    1    100.0   15 
 3/12/22   8.00   14.8   14.9   14.8    80   11.4  14.5   ESE   3.62  30.6    SE   13.3   14.7   13.2   10.7  1001.3  0.00   0.0     3     0.06      9     0.0  0.00   0.0   0.037   0.000   14.0    69    8.4   13.6    0.03   350    1    100.0   15 
 3/12/22   8.15   14.8   14.8   14.8    78   11.0  14.5   ESE   3.62  32.2    SE   13.3   14.6   13.2   10.8  1001.3  0.00   0.0    18     0.39     30     0.0  0.00   0.0   0.037   0.000   14.0    69    8.4   13.6    0.00   351    1    100.0   15 
 3/12/22   8.30   14.8   14.8   14.7    77   10.8  14.5   ESE   3.62  30.6    SE   13.4   14.6   13.2   11.0  1001.3  0.00   0.0    31     0.67     35     0.0  0.00   0.0   0.036   0.000   14.0    69    8.4   13.6    0.00   352    1    100.0   15 
 3/12/22   8.45   14.9   14.9   14.8    77   10.9  14.5   ESE   3.62  35.4     E   13.5   14.7   13.3   11.2  1001.3  0.00   0.0    43     0.92     49     0.0  0.00   0.0   0.036   0.000   14.0    69    8.4   13.6    0.00   351    1    100.0   15 
 3/12/22   9.00   14.8   14.9   14.7    78   11.0  12.9   ESE   3.22  30.6    SE   13.8   14.7   13.7   12.6  1001.3  0.00   0.0    48     1.03     60     0.0  0.00   0.0   0.036   0.000   14.0    69    8.4   13.6    0.05   351    1    100.0   15 
 3/12/22   9.15   14.8   14.9   14.7    79   11.2   9.7   ESE   2.41  25.7    SE   14.4   14.7   14.3   13.3  1001.3  0.00   0.0    54     1.16     70     0.0  0.00   0.0   0.036   0.000   14.0    69    8.4   13.6    0.00   351    1    100.0   15 
 3/12/22   9.30   14.9   14.9   14.8    79   11.3   9.7   ESE   2.41  30.6    SE   14.6   14.8   14.4   13.6  1001.3  0.00   0.0    55     1.18     70     0.0  0.00   0.0   0.035   0.000   14.0    69    8.4   13.6    0.00   350    1    100.0   15 
 3/12/22   9.45   14.9   15.0   14.9    79   11.3   8.0   ESE   2.01  22.5     E   14.8   14.7   14.6   13.4  1001.3  0.00   0.0    48     1.03     60     0.0  0.00   0.0   0.036   0.000   14.0    69    8.4   13.6    0.00   351    1    100.0   15 
 3/12/22  10.00   15.1   15.1   14.8    80   11.6   8.0   ESE   2.01  27.4   SSE   14.9   14.9   14.8   13.4   994.1  0.00   0.0    41     0.88     44     0.0  0.00   0.0   0.034   0.000   14.0    69    8.4   13.6    0.05   351    1    100.0   15 
 3/12/22  10.15   15.6   15.6   15.1    80   12.1  11.3    SE   2.82  30.6   SSE   15.1   15.5   15.1   13.1   994.1  0.00   0.0    17     0.37     39     0.0  0.00   0.0   0.029   0.000   14.1    69    8.5   13.7    0.00   350    1    100.0   15 
 3/12/22  10.30   15.5   15.7   15.4    80   12.1  14.5    SE   3.62  32.2    SE   14.2   15.4   14.2   12.2   994.1  0.00   0.0    10     0.22     14     0.0  0.00   0.0   0.030   0.000   14.0    69    8.4   13.6    0.00   351    1    100.0   15 
 3/12/22  10.45   15.2   15.6   15.2    82   12.1  16.1    SE   4.02  29.0   SSE   13.4   15.1   13.4   11.7  1019.0  0.25   0.0    17     0.37     39     0.0  0.00   0.0   0.033   0.000   14.1    69    8.5   13.7    0.00   352    1    100.0   15 
 3/12/22  11.00   14.5   15.2   14.5    83   11.6  16.1    SE   4.02  33.8    SE   12.6   14.4   12.6   11.8  1019.0  0.00   0.0    68     1.46     93     0.0  0.00   0.0   0.040   0.000   14.1    69    8.5   13.7    0.05   351    1    100.0   15 
 3/12/22  11.15   14.7   14.7   14.3    81   11.4  14.5   ESE   3.62  32.2     E   13.2   14.6   13.1   12.3  1019.0  0.00   0.0    74     1.59     88     0.0  0.00   0.0   0.038   0.000   14.1    69    8.5   13.7    0.00   349    1    100.0   15 
 3/12/22  11.30   14.6   14.8   14.5    80   11.1  14.5   ESE   3.62  32.2   ESE   13.1   14.4   12.9   12.1  1019.0  0.00   0.0    71     1.53     95     0.0  0.00   0.0   0.039   0.000   14.1    70    8.7   13.7    0.00   351    1    100.0   15 
 3/12/22  11.45   14.4   14.6   14.4    80   11.0  12.9   ESE   3.22  33.8   SSE   13.4   14.3   13.3   13.1   995.4  0.00   0.0   106     2.28    141     0.0  0.00   0.0   0.041   0.000   14.1    70    8.7   13.7    0.00   352    1    100.0   15 
 3/12/22  12.00   14.5   14.6   14.4    79   10.9  14.5   ESE   3.62  49.9    SE   13.0   14.3   12.8   11.7   994.4  0.00   0.0    57     1.23     77     0.0  0.00   0.0   0.040   0.000   14.1    70    8.7   13.7    0.08   350    1    100.0   15 
 3/12/22  12.15   14.4   14.6   14.4    79   10.8  16.1   ESE   4.02  38.6    SE   12.5   14.2   12.3   11.2   994.4  0.00   0.0    52     1.12     72     0.0  0.00   0.0   0.041   0.000   14.1    70    8.7   13.7    0.00   350    1    100.0   15 
 3/12/22  12.30   14.4   14.4   14.3    77   10.5  17.7   ESE   4.43  37.0   SSE   12.2   14.2   12.0   10.3   994.4  0.00   0.0    22     0.47     30     0.0  0.00   0.0   0.041   0.000   14.1    70    8.7   13.7    0.00   349    1    100.0   15 
 3/12/22  12.45   14.4   14.4   14.3    75   10.1  14.5   ESE   3.62  37.0   SSE   12.9   14.2   12.7   10.9   994.4  0.00   0.0    22     0.47     25     0.0  0.00   0.0   0.041   0.000   14.1    70    8.7   13.7    0.00   351    1    100.0   15 
 3/12/22  13.00   14.2   14.4   14.2    77   10.2  14.5     E   3.62  30.6   ESE   12.7   14.0   12.4   10.7   994.4  0.00   0.0    25     0.54     30     0.0  0.00   0.0   0.043   0.000   14.1    70    8.7   13.7    0.05   351    1    100.0   15 
 3/12/22  13.15   13.9   14.3   13.9    78   10.2  12.9   ESE   3.22  29.0   SSE   12.8   13.7   12.6   10.8   994.4  0.00   0.0    24     0.52     28     0.0  0.00   0.0   0.046   0.000   14.1    70    8.7   13.7    0.00   351    1    100.0   15 
 3/12/22  13.30   13.7   13.9   13.7    79   10.1  12.9     E   3.22  35.4    SE   12.4   13.5   12.3   10.3   990.3  0.00   0.0    13     0.28     19     0.0  0.00   0.0   0.049   0.000   14.1    70    8.7   13.7    0.00   351    1    100.0   15 
 3/12/22  13.45   13.7   13.8   13.7    80   10.3   9.7     E   2.41  30.6   ENE   13.1   13.6   12.9   10.9   990.3  0.00   0.0    19     0.41     21     0.0  0.00   0.0   0.048   0.000   14.1    70    8.7   13.7    0.00   351    1    100.0   15 
 3/12/22  14.00   13.9   13.9   13.7    80   10.5  11.3   ESE   2.82  27.4   ESE   13.2   13.8   13.0   11.1   990.3  0.00   0.0    22     0.47     23     0.0  0.00   0.0   0.046   0.000   14.1    70    8.7   13.7    0.05   352    1    100.0   15 
 3/12/22  14.15   14.1   14.1   13.9    79   10.5  11.3   ESE   2.82  25.7   SSE   13.3   13.9   13.2   11.3  1023.4  0.00   0.0    25     0.54     25     0.0  0.00   0.0   0.045   0.000   14.1    70    8.7   13.7    0.00   349    1    100.0   15 
 3/12/22  14.30   13.9   14.1   13.9    79   10.4   8.0   ESE   2.01  25.7   ESE   13.6   13.8   13.4   11.4  1023.4  0.00   0.0    18     0.39     25     0.0  0.00   0.0   0.046   0.000   14.1    70    8.7   13.7    0.00   350    1    100.0   15 
 3/12/22  14.45   14.1   14.1   13.9    79   10.5   6.4   ESE   1.61  19.3   ESE   14.1   13.9   13.9   11.8   983.6  0.00   0.0    11     0.24     12     0.0  0.00   0.0   0.044   0.000   14.1    70    8.7   13.7    0.00   351    1    100.0   15 
 3/12/22  15.00   13.9   14.2   13.9    79   10.4   9.7   ESE   2.41  24.1    SE   13.4   13.8   13.2   11.1   983.6  0.00   0.0    10     0.22     11     0.0  0.00   0.0   0.046   0.000   14.1    70    8.7   13.7    0.03   350    1    100.0   15 
 3/12/22  15.15   13.6   13.9   13.6    81   10.4  11.3   ESE   2.82  25.7    SE   12.7   13.4   12.6   10.4   983.6  0.25   0.0     9     0.19     11     0.0  0.00   0.0   0.050   0.000   14.1    70    8.7   13.7    0.00   350    1    100.0   15 
 3/12/22  15.30   13.6   13.6   13.5    81   10.4  12.9   ESE   3.22  29.0    SE   12.3   13.4   12.2   10.2  1014.0  0.00   0.0    11     0.24     12     0.0  0.00   0.0   0.050   0.000   14.1    70    8.7   13.7    0.00   350    1    100.0   15 
 3/12/22  15.45   13.6   13.6   13.5    80   10.2   9.7   ESE   2.41  25.7   ESE   13.0   13.4   12.8   10.6  1014.0  0.00   0.0     4     0.09      9     0.0  0.00   0.0   0.049   0.000   14.1    70    8.7   13.7    0.00   351    1    100.0   15 
 3/12/22  16.00   13.3   13.6   13.3    81   10.1   6.4   ESE   1.61  20.9     E   13.2   13.2   13.1   10.7  1014.0  0.00   0.0     0     0.00      0     0.0  0.00   0.0   0.052   0.000   14.1    70    8.7   13.7    0.03   350    1    100.0   15 
 3/12/22  16.15   12.9   13.3   12.8    83   10.1  11.3     E   2.82  29.0   ESE   11.9   12.8   11.8    9.4  1014.0  0.76   3.0     0     0.00      0     0.0  0.00   0.0   0.057   0.000   14.1    70    8.7   13.7    0.00   350    1    100.0   15 
 3/12/22  16.30   12.6   12.8   12.6    84    9.9  11.3     E   2.82  30.6     E   11.5   12.5   11.4    8.8  1014.0  0.51   3.3     0     0.00      0     0.0  0.00   0.0   0.060   0.000   14.1    71    8.9   13.7    0.00   351    1    100.0   15 
 3/12/22  16.45   12.4   12.6   12.4    84    9.8  11.3     E   2.82  25.7   ESE   11.4   12.4   11.3    8.7  1014.0  0.25   2.0     0     0.00      0     0.0  0.00   0.0   0.061   0.000   14.1    71    8.9   13.7    0.00   350    1    100.0   15 
 3/12/22  17.00   12.4   12.5   12.4    85    9.9   8.0     E   2.01  25.7   ESE   11.8   12.3   11.8    9.1  1014.0  0.00   0.0     0     0.00      0     0.0  0.00   0.0   0.062   0.000   14.1    71    8.9   13.7    0.03   350    1    100.0   15 
 3/12/22  17.15   12.0   12.4   12.0    84    9.4   4.8   ENE   1.21  17.7    NE   12.0   11.9   11.9    9.2  1014.0  0.00   0.0     0     0.00      0     0.0  0.00   0.0   0.066   0.000   14.2    71    9.0   13.8    0.00   352    1    100.0   15 
 3/12/22  17.30   12.0   12.1   11.9    83    9.2   4.8    NE   1.21  17.7   NNW   12.0   11.9   11.9    9.1  1014.0  0.25   0.0     0     0.00      0     0.0  0.00   0.0   0.066   0.000   14.1    71    8.9   13.7    0.00   350    1    100.0   15 
 3/12/22  17.45   12.2   12.2   11.9    82    9.2   6.4     N   1.61  20.9    NE   11.9   12.1   11.8    8.9  1014.0  0.00   0.0     0     0.00      0     0.0  0.00   0.0   0.064   0.000   14.1    71    8.9   13.7    0.00   350    1    100.0   15 
 3/12/22  18.00   12.2   12.2   12.1    82    9.2   1.6     N   0.40   6.4   NNW   12.2   12.1   12.1    9.3  1014.0  0.00   0.0     0     0.00      0     0.0  0.00   0.0   0.064   0.000   14.1    71    8.9   13.7    0.03   351    1    100.0   15 
 3/12/22  18.15   12.4   12.4   12.2    83    9.6   4.8   NNE   1.21  17.7     N   12.4   12.3   12.3    9.6  1014.0  0.00   0.0     0     0.00      0     0.0  0.00   0.0   0.062   0.000   14.1    71    8.9   13.7    0.00   352    1    100.0   15 
 3/12/22  18.30   12.4   12.4   12.3    82    9.4   3.2    NW   0.80   9.7    NW   12.4   12.3   12.3    9.4  1015.9  0.25   0.0     0     0.00      0     0.0  0.00   0.0   0.062   0.000   14.1    71    8.9   13.7    0.00   351    1    100.0   15 
 3/12/22  18.45   12.4   12.4   12.4    82    9.5   4.8   NNW   1.21  14.5   NNE   12.4   12.3   12.3    9.6  1015.9  0.00   0.0     0     0.00      0     0.0  0.00   0.0   0.061   0.000   14.1    71    8.9   13.7    0.00   350    1    100.0   15 
 3/12/22  19.00   12.6   12.6   12.4    82    9.6   1.6   NNW   0.40   8.0   NNW   12.6   12.4   12.4    9.7  1015.9  0.00   0.0     0     0.00      0     0.0  0.00   0.0   0.060   0.000   14.1    71    8.9   13.7    0.03   350    1    100.0   15 
 3/12/22  19.15   12.5   12.6   12.4    82    9.5   3.2   WNW   0.80   6.4   WNW   12.5   12.4   12.4    9.7  1015.9  0.00   0.0     0     0.00      0     0.0  0.00   0.0   0.061   0.000   14.1    71    8.9   13.7    0.00   350    1    100.0   15 
 3/12/22  19.30   12.3   12.5   12.3    83    9.5   0.0   WNW   0.00   3.2   WNW   12.3   12.2   12.2    9.4  1008.5  0.00   0.0     0     0.00      0     0.0  0.00   0.0   0.063   0.000   14.1    71    8.9   13.7    0.00   351    1    100.0   15 
 3/12/22  19.45   12.1   12.2   12.1    83    9.3   0.0   WNW   0.00   3.2   WNW   12.1   11.9   11.9    9.1  1008.5  0.00   0.0     0     0.00      0     0.0  0.00   0.0   0.065   0.000   14.1    71    8.9   13.7    0.00   350    1    100.0   15 
 3/12/22  20.00   11.9   12.1   11.8    83    9.1   0.0   WNW   0.00   4.8   WNW   11.9   11.8   11.8    8.9  1008.5  0.00   0.0     0     0.00      0     0.0  0.00   0.0   0.067   0.000   14.1    71    8.9   13.7    0.03   350    1    100.0   15 
 3/12/22  20.15   11.9   12.1   11.8    83    9.1   1.6    NW   0.40   3.2   WNW   11.9   11.8   11.8    9.0  1008.5  0.25   0.0     0     0.00      0     0.0  0.00   0.0   0.067   0.000   14.1    70    8.7   13.7    0.00   351    1    100.0   15 
 3/12/22  20.30   11.8   11.9   11.8    84    9.2   0.0   WNW   0.00   3.2   WNW   11.8   11.7   11.7    8.9  1008.5  0.00   0.0     0     0.00      0     0.0  0.00   0.0   0.068   0.000   14.1    71    8.9   13.7    0.00   350    1    100.0   15 
 3/12/22  20.45   12.2   12.2   11.8    84    9.6   1.6     W   0.40  11.3   WNW   12.2   12.2   12.2    9.4  1008.5  0.00   0.0     0     0.00      0     0.0  0.00   0.0   0.064   0.000   14.1    71    8.9   13.7    0.00   351    1    100.0   15 
 3/12/22  21.00   12.2   12.3   12.2    84    9.5   0.0     N   0.00   4.8   NNW   12.2   12.1   12.1    9.4  1008.5  0.25   0.0     0     0.00      0     0.0  0.00   0.0   0.064   0.000   14.1    71    8.9   13.7    0.03   351    1    100.0   15 
 3/12/22  21.15   11.8   12.2   11.8    85    9.4   1.6   WNW   0.40   6.4   WNW   11.8   11.8   11.8    9.0  1005.4  0.51   3.0     0     0.00      0     0.0  0.00   0.0   0.068   0.000   14.1    71    8.9   13.7    0.00   350    1    100.0   15 
 3/12/22  21.30   11.8   11.9   11.8    85    9.4   0.0   WNW   0.00   1.6   WNW   11.8   11.8   11.8    9.0  1008.5  0.76   3.8     0     0.00      0     0.0  0.00   0.0   0.068   0.000   14.1    71    8.9   13.7    0.00   351    1    100.0   15 
 3/12/22  21.45   11.9   12.0   11.8    86    9.7   0.0     N   0.00   4.8   NNE   11.9   11.9   11.9    9.2  1008.5  0.76   3.8     0     0.00      0     0.0  0.00   0.0   0.067   0.000   14.1    71    8.9   13.7    0.00   321    1     93.9   15 
 3/12/22  22.00   11.7   11.9   11.7    86    9.5   0.0     N   0.00   3.2     N   11.7   11.7   11.7    8.9  1008.5  0.51   3.8     0     0.00      0     0.0  0.00   0.0   0.069   0.000   14.1    71    8.9   13.7    0.00   179    1     52.3   15 
 3/12/22  22.15   11.6   11.7   11.6    86    9.3   1.6   NNE   0.40   4.8   NNE   11.6   11.6   11.6    8.8  1008.5  1.52   9.7     0     0.00      0     0.0  0.00   0.0   0.070   0.000   14.1    71    8.9   13.7    0.00   244    1     71.3   15 
 3/12/22  22.30   11.8   11.9   11.6    87    9.7   1.6   NNW   0.40   8.0   NNW   11.8   11.8   11.8    9.1  1007.4  1.78   9.9     0     0.00      0     0.0  0.00   0.0   0.068   0.000   14.1    71    8.9   13.7    0.00   316    1     92.4   15 
 3/12/22  22.45   11.9   11.9   11.8    87    9.8   4.8   NNW   1.21   9.7     N   11.9   11.9   11.9    9.2  1007.4  1.78   9.1     0     0.00      0     0.0  0.00   0.0   0.067   0.000   14.1    71    8.9   13.7    0.00   347    1    100.0   15 
 3/12/22  23.00   11.8   11.9   11.8    88    9.9   4.8   NNW   1.21  11.3   NNW   11.8   11.8   11.8    9.1  1007.4  1.02   7.6     0     0.00      0     0.0  0.00   0.0   0.068   0.000   14.1    71    8.9   13.7    0.03   340    1     99.4   15 
 3/12/22  23.15   12.0   12.0   11.8    88   10.1   4.8   NNW   1.21  14.5    NW   12.0   12.0   12.0    9.3  1007.4  0.76   3.3     0     0.00      0     0.0  0.00   0.0   0.066   0.000   14.1    71    8.9   13.7    0.00   338    1     98.8   15 
 3/12/22  23.30   12.1   12.1   12.0    88   10.1   3.2   NNW   0.80   6.4   NNW   12.1   12.1   12.1    9.3  1007.4  1.27   7.4     0     0.00      0     0.0  0.00   0.0   0.065   0.000   14.1    71    8.9   13.7    0.00   312    1     91.2   15 
 3/12/22  23.45   12.2   12.2   12.1    89   10.4   0.0   NNW   0.00   4.8    NW   12.2   12.2   12.2    9.5  1007.4  1.52   7.1     0     0.00      0     0.0  0.00   0.0   0.064   0.000   14.1    71    8.9   13.7    0.00   324    1     94.7   15 
 4/12/22  00.00   12.2   12.3   12.2    89   10.4   1.6    NW   0.40   8.0    NW   12.2   12.2   12.2    9.5  1007.4  1.27   6.9     0     0.00      0     0.0  0.00   0.0   0.064   0.000   14.1    71    8.9   13.7    0.00   306    1     89.5   15 
 4/12/22   0.15   12.2   12.2   12.1    89   10.4   0.0    NW   0.00   1.6    NW   12.2   12.2   12.2    9.5  1007.4  1.02   6.6     0     0.00      0     0.0  0.00   0.0   0.064   0.000   14.1    71    8.9   13.7    0.00   265    1     77.5   15 
 4/12/22   0.30   12.2   12.2   12.1    89   10.5   4.8     N   1.21  14.5     N   12.2   12.3   12.3    9.6   983.8  1.52   7.9     0     0.00      0     0.0  0.00   0.0   0.064   0.000   14.1    71    8.9   13.7    0.00   343    1    100.0   15 
 4/12/22   0.45   12.2   12.2   12.2    89   10.5   6.4     N   1.61  19.3     N   11.9   12.3   12.0    9.3   811.0  1.02   7.6     0     0.00      0     0.0  0.00   0.0   0.064   0.000   14.1    71    8.9   13.7    0.00   349    1    100.0   15 
 4/12/22   1.00   12.2   12.3   12.1    89   10.4   9.7     N   2.41  20.9    NW   11.3   12.2   11.3    8.6   811.0  1.02   7.6     0     0.00      0     0.0  0.00   0.0   0.064   0.000   14.1    72    9.1   13.7    0.00   351    1    100.0   15 
 4/12/22   1.15   12.2   12.2   12.1    89   10.4   8.0     N   2.01  19.3     N   11.6   12.2   11.6    8.9   999.6  0.25   5.1     0     0.00      0     0.0  0.00   0.0   0.064   0.000   14.1    72    9.1   13.7    0.00   349    1    100.0   15 
 4/12/22   1.30   12.2   12.3   12.2    89   10.5   8.0   NNW   2.01  17.7   NNE   11.6   12.3   11.7    8.9   999.6  0.25   1.3     0     0.00      0     0.0  0.00   0.0   0.064   0.000   14.1    72    9.1   13.7    0.00   350    1    100.0   15 
 4/12/22   1.45   12.3   12.3   12.2    89   10.6   8.0     N   2.01  20.9     N   11.7   12.4   11.8    9.1   999.6  0.00   0.0     0     0.00      0     0.0  0.00   0.0   0.062   0.000   14.1    72    9.1   13.7    0.00   350    1    100.0   15 
 4/12/22   2.00   12.2   12.3   12.2    89   10.5   4.8   NNW   1.21  12.9   NNW   12.2   12.3   12.3    9.6   811.2  0.00   0.0     0     0.00      0     0.0  0.00   0.0   0.064   0.000   14.1    72    9.1   13.7    0.03   350    1    100.0   15 
 4/12/22   2.15   12.2   12.2   12.2    89   10.4   6.4   NNW   1.61  14.5   NNW   11.9   12.2   11.9    9.2  1003.9  0.51   1.8     0     0.00      0     0.0  0.00   0.0   0.064   0.000   14.1    72    9.1   13.7    0.00   349    1    100.0   15 
 4/12/22   2.30   12.3   12.3   12.2    89   10.5   4.8   NNW   1.21  12.9   NNW   12.3   12.3   12.3    9.6  1003.9  0.25   1.8     0     0.00      0     0.0  0.00   0.0   0.063   0.000   14.1    72    9.1   13.7    0.00   344    1    100.0   15 
 4/12/22   2.45   12.3   12.3   12.2    89   10.5   3.2    NW   0.80   8.0    NW   12.3   12.3   12.3    9.6  1003.9  0.51   6.3     0     0.00      0     0.0  0.00   0.0   0.063   0.000   14.1    72    9.1   13.7    0.00   285    1     83.3   15 
 4/12/22   3.00   12.2   12.2   12.2    89   10.4   3.2   NNE   0.80   8.0    NE   12.2   12.2   12.2    9.5  1001.8  1.27  10.4     0     0.00      0     0.0  0.00   0.0   0.064   0.000   14.1    72    9.1   13.7    0.00   325    1     95.0   15 
 4/12/22   3.15   12.1   12.2   12.1    89   10.4   3.2   NNW   0.80   8.0   NNW   12.1   12.2   12.2    9.4  1003.6  0.25   2.3     0     0.00      0     0.0  0.00   0.0   0.065   0.000   14.1    72    9.1   13.7    0.00   287    1     83.9   15 
 4/12/22   3.30   12.0   12.1   12.0    90   10.4   0.0   NNW   0.00   4.8   NNW   12.0   12.1   12.1    9.3  1003.6  0.00   0.0     0     0.00      0     0.0  0.00   0.0   0.066   0.000   14.1    72    9.1   13.7    0.00   351    1    100.0   15 
 4/12/22   3.45   12.1   12.1   12.0    90   10.5   1.6   NNW   0.40   4.8   NNW   12.1   12.2   12.2    9.4  1003.6  0.00   0.0     0     0.00      0     0.0  0.00   0.0   0.065   0.000   14.1    72    9.1   13.7    0.00   351    1    100.0   15 
 4/12/22   4.00   11.9   12.1   11.9    90   10.4   0.0     N   0.00   3.2     N   11.9   12.0   12.0    9.3  1011.8  0.00   0.0     0     0.00      0     0.0  0.00   0.0   0.067   0.000   14.1    72    9.1   13.7    0.00   349    1    100.0   15 
 4/12/22   4.15   11.9   12.0   11.9    90   10.4   0.0     N   0.00   3.2     N   11.9   12.0   12.0    9.3   989.0  0.00   0.0     0     0.00      0     0.0  0.00   0.0   0.067   0.000   14.1    72    9.1   13.7    0.00   352    1    100.0   15 
 4/12/22   4.30   11.8   12.1   11.8    90   10.2   0.0     N   0.00   3.2     N   11.8   11.8   11.8    9.1   988.4  0.00   0.0     0     0.00      0     0.0  0.00   0.0   0.068   0.000   14.1    72    9.1   13.7    0.00   350    1    100.0   15 
 4/12/22   4.45   11.6   11.8   11.5    90   10.0   0.0     N   0.00   1.6     N   11.6   11.6   11.6    8.9   988.4  0.00   0.0     0     0.00      0     0.0  0.00   0.0   0.071   0.000   14.1    72    9.1   13.7    0.00   350    1    100.0   15 
 4/12/22   5.00   11.5   11.6   11.4    90    9.9   0.0     N   0.00   1.6     N   11.5   11.6   11.6    8.8   988.4  0.00   0.0     0     0.00      0     0.0  0.00   0.0   0.071   0.000   14.1    72    9.1   13.7    0.00   350    1    100.0   15 
 4/12/22   5.15   11.7   11.7   11.5    90   10.1   0.0   WSW   0.00   4.8   WSW   11.7   11.7   11.7    9.0   988.4  0.00   0.0     0     0.00      0     0.0  0.00   0.0   0.069   0.000   14.1    72    9.1   13.7    0.00   350    1    100.0   15 
 4/12/22   5.30   11.8   11.8   11.5    90   10.2   0.0   ---   0.00   0.0   ---   11.8   11.9   11.9    9.2   988.4  0.00   0.0     0     0.00      0     0.0  0.00   0.0   0.068   0.000   14.1    72    9.1   13.7    0.00   352    1    100.0   15 
 4/12/22   5.45   11.7   11.9   11.7    90   10.1   0.0   WSW   0.00   3.2   WSW   11.7   11.7   11.7    9.0   988.4  0.00   0.0     0     0.00      0     0.0  0.00   0.0   0.069   0.000   14.1    71    8.9   13.7    0.00   350    1    100.0   15 
 4/12/22   6.00   11.9   11.9   11.7    90   10.3   0.0   WSW   0.00   1.6   WSW   11.9   11.9   11.9    9.2   988.4  0.00   0.0     0     0.00      0     0.0  0.00   0.0   0.067   0.000   14.1    71    8.9   13.7    0.00   349    1    100.0   15 
 4/12/22   6.15   12.2   12.2   11.9    90   10.6   0.0   WSW   0.00   1.6   WSW   12.2   12.3   12.3    9.6   986.3  0.00   0.0     0     0.00      0     0.0  0.00   0.0   0.064   0.000   14.1    71    8.9   13.7    0.00   350    1    100.0   15 
 4/12/22   6.30   12.0   12.2   12.0    90   10.4   0.0   ---   0.00   0.0   ---   12.0   12.1   12.1    9.3   986.3  0.00   0.0     0     0.00      0     0.0  0.00   0.0   0.066   0.000   14.1    71    8.9   13.7    0.00   351    1    100.0   15 
 4/12/22   6.45   11.9   12.0   11.9    90   10.4   0.0   ---   0.00   0.0   ---   11.9   12.0   12.0    9.3   986.3  0.00   0.0     0     0.00      0     0.0  0.00   0.0   0.067   0.000   14.1    72    9.1   13.7    0.00   350    1    100.0   15 
 4/12/22   7.00   11.9   12.0   11.9    90   10.3   0.0   ---   0.00   0.0   ---   11.9   11.9   11.9    9.2   986.3  0.00   0.0     0     0.00      0     0.0  0.00   0.0   0.067   0.000   14.1    72    9.1   13.7    0.00   350    1    100.0   15 
 4/12/22   7.15   11.6   11.9   11.6    90   10.0   0.0   ---   0.00   0.0   ---   11.6   11.6   11.6    8.9   986.3  0.00   0.0     0     0.00      0     0.0  0.00   0.0   0.071   0.000   14.1    72    9.1   13.7    0.00   351    1    100.0   15 
 4/12/22   7.30   11.2   11.6   11.2    90    9.6   0.0   ---   0.00   0.0   ---   11.2   11.3   11.3    8.6  1010.2  0.00   0.0     0     0.00      0     0.0  0.00   0.0   0.074   0.000   14.1    72    9.1   13.7    0.00   351    1    100.0   15 
 4/12/22   7.45   11.2   11.3   11.1    90    9.6   0.0   ---   0.00   0.0   ---   11.2   11.3   11.3    8.7   998.8  0.00   0.0     6     0.13      9     0.0  0.00   0.0   0.074   0.000   14.1    72    9.1   13.7    0.00   351    1    100.0   15 
 4/12/22   8.00   10.5   11.2   10.5    90    8.9   0.0   ---   0.00   0.0   ---   10.5   10.6   10.6    8.0   998.8  0.00   0.0    12     0.26     19     0.0  0.00   0.0   0.082   0.000   14.1    72    9.1   13.7    0.00   350    1    100.0   15 
 4/12/22   8.15   10.6   10.6   10.4    90    9.0   0.0   ---   0.00   0.0   ---   10.6   10.7   10.7    8.2   998.8  0.00   0.0    19     0.41     21     0.0  0.00   0.0   0.081   0.000   14.1    72    9.1   13.7    0.00   351    1    100.0   15 
 4/12/22   8.30   10.6   10.7   10.4    90    9.0   0.0   ---   0.00   0.0   ---   10.6   10.7   10.7    8.3   998.8  0.00   0.0    29     0.62     83     0.0  0.00   0.0   0.080   0.000   14.1    72    9.1   13.7    0.00   350    1    100.0   15 
 4/12/22   8.45   10.9   10.9   10.7    90    9.3   0.0    NW   0.00   3.2    NW   10.9   11.0   11.0    9.7   998.8  0.00   0.0   109     2.34    128     0.0  0.00   0.0   0.078   0.000   14.1    72    9.1   13.7    0.00   350    1    100.0   15 
 4/12/22   9.00   11.6   11.7   10.9    90   10.0   0.0   NNW   0.00   1.6    NW   11.6   11.7   11.7   11.7  1026.9  0.00   0.0   144     3.10    160     0.0  0.00   0.0   0.070   0.000   14.1    72    9.1   13.7    0.03   349    1    100.0   15 
 4/12/22   9.15   12.1   12.2   11.6    91   10.7   0.0   ---   0.00   0.0   ---   12.1   12.2   12.2   12.9  1003.5  0.00   0.0   180     3.87    199     0.0  0.00   0.0   0.065   0.000   14.1    72    9.1   13.7    0.00   350    1    100.0   15 
 4/12/22   9.30   12.9   12.9   12.2    91   11.5   0.0   NNW   0.00   1.6   NNW   12.9   12.9   12.9   14.6  1003.5  0.00   0.0   227     4.88    253     0.0  0.00   0.0   0.057   0.000   14.1    72    9.1   13.7    0.00   351    1    100.0   15 
 4/12/22   9.45   13.5   13.5   12.9    91   12.1   0.0   ---   0.00   0.0   ---   13.5   13.6   13.6   15.9  1001.5  0.00   0.0   271     5.83    290     0.0  0.00   0.0   0.050   0.000   14.2    72    9.2   13.8    0.00   351    1    100.0   15 
 4/12/22  10.00   13.8   13.8   13.5    91   12.3   0.0   NNW   0.00   1.6   NNW   13.8   13.8   13.8   16.7  1001.5  0.00   0.0   299     6.43    316     0.0  0.00   0.0   0.047   0.000   14.2    72    9.2   13.8    0.13   350    1    100.0   15 
 4/12/22  10.15   14.6   14.6   13.8    91   13.1   0.0   ---   0.00   0.0   ---   14.6   14.7   14.7   17.8  1001.5  0.00   0.0   331     7.12    348     0.0  0.00   0.0   0.039   0.000   14.2    71    9.0   13.8    0.00   350    1    100.0   15 
 4/12/22  10.30   14.8   14.8   14.6    90   13.2   0.0   ---   0.00   0.0   ---   14.8   14.9   14.9   16.5   999.3  0.00   0.0   194     4.17    346     0.0  0.00   0.0   0.036   0.000   14.2    71    9.0   13.8    0.00   350    1    100.0   15 
 4/12/22  10.45   15.7   15.8   14.8    89   13.9   0.0   ---   0.00   0.0   ---   15.7   15.9   15.9   19.3   999.3  0.00   0.0   374     8.04    404     0.0  0.00   0.0   0.027   0.000   14.3    71    9.1   13.9    0.00   351    1    100.0   15 
 4/12/22  11.00   16.2   16.2   15.7    87   14.1   0.0   ENE   0.00   1.6   NNW   16.2   16.4   16.4   19.8   998.0  0.00   0.0   383     8.24    388     0.0  0.00   0.0   0.022   0.000   14.3    71    9.1   13.9    0.18   351    1    100.0   15 
 4/12/22  11.15   16.3   16.3   16.1    83   13.4   0.0   ---   0.00   0.0   ---   16.3   16.4   16.4   19.8   998.0  0.00   0.0   394     8.47    399     0.0  0.00   0.0   0.021   0.000   14.3    71    9.1   13.9    0.00   350    1    100.0   15 
 4/12/22  11.30   16.7   16.7   16.3    80   13.3   0.0   ---   0.00   0.0   ---   16.7   16.8   16.8   20.3   998.0  0.00   0.0   404     8.69    424     0.0  0.00   0.0   0.017   0.000   14.6    71    9.4   14.2    0.00   351    1    100.0   15 
 4/12/22  11.45   17.1   17.1   16.7    78   13.2   0.0     E   0.00   3.2     E   17.1   17.2   17.2   20.8   998.0  0.00   0.0   400     8.60    438     0.0  0.00   0.0   0.013   0.000   14.6    71    9.4   14.2    0.00   349    1    100.0   15 
 4/12/22  12.00   17.1   17.1   16.9    77   13.0   0.0     E   0.00   3.2     E   17.1   17.1   17.1   20.3   998.0  0.00   0.0   342     7.35    417     0.0  0.00   0.0   0.013   0.000   14.7    71    9.5   14.3    0.00   349    1    100.0   15 
 4/12/22  12.15   17.3   17.3   17.1    77   13.3   0.0   ---   0.00   0.0   ---   17.3   17.4   17.4   21.1   998.0  0.00   0.0   411     8.84    422     0.0  0.00   0.0   0.010   0.000   14.9    71    9.7   14.5    0.20   350    1    100.0   15 
 4/12/22  12.30   17.4   17.4   17.3    77   13.4   0.0     E   0.00   1.6     E   17.4   17.5   17.5   21.2   998.0  0.00   0.0   404     8.69    424     0.0  0.00   0.0   0.009   0.000   14.9    71    9.7   14.6    0.00   349    1    100.0   15 
 4/12/22  12.45   17.2   17.5   17.2    77   13.2   0.0     S   0.00   4.8     S   17.2   17.3   17.3   20.9   998.0  0.00   0.0   394     8.47    436     0.0  0.00   0.0   0.012   0.000   15.1    70    9.6   14.7    0.00   349    1    100.0   15 
 4/12/22  13.00   17.1   17.2   17.1    75   12.6   1.6   SSE   0.40   8.0     S   17.1   17.1   17.1   20.7   999.7  0.00   0.0   395     8.49    432     0.0  0.00   0.0   0.013   0.000   15.2    70    9.8   14.8    0.23   351    1    100.0   15 
 4/12/22  13.15   17.1   17.2   16.9    75   12.6   1.6     S   0.40   9.7   SSW   17.1   17.1   17.1   20.4   999.7  0.00   0.0   350     7.53    450     0.0  0.00   0.0   0.013   0.000   15.3    70    9.8   14.9    0.00   351    1    100.0   15 
 4/12/22  13.30   16.8   17.2   16.8    76   12.5   1.6     S   0.40   9.7     S   16.8   16.7   16.7   18.1   999.7  0.00   0.0   199     4.28    369     0.0  0.00   0.0   0.016   0.000   15.3    70    9.8   14.9    0.00   350    1    100.0   15 
 4/12/22  13.45   17.2   17.3   16.8    75   12.7   0.0   ---   0.00   0.0   ---   17.2   17.1   17.1   20.6   999.7  0.00   0.0   386     8.30    424     0.0  0.00   0.0   0.012   0.000   15.4    70    9.9   15.1    0.00   349    1    100.0   15 
 4/12/22  14.00   17.6   17.6   17.2    75   13.1   0.0   ---   0.00   0.0   ---   17.6   17.6   17.6   20.9   998.2  0.00   0.0   347     7.46    371     0.0  0.00   0.0   0.008   0.000   15.4    70   10.0   15.1    0.18   352    1    100.0   15 
 4/12/22  14.15   17.4   17.6   17.4    75   13.0   0.0   ---   0.00   0.0   ---   17.4   17.4   17.4   20.6   797.1  0.00   0.0   329     7.07    339     0.0  0.00   0.0   0.009   0.000   15.4    70   10.0   15.1    0.00   350    1    100.0   15 
 4/12/22  14.30   17.3   17.5   17.2    76   13.0   0.0   ---   0.00   0.0   ---   17.3   17.3   17.3   19.3   993.8  0.00   0.0   224     4.82    309     0.0  0.00   0.0   0.011   0.000   15.3    70    9.8   14.9    0.00   350    1    100.0   15 
 4/12/22  14.45   16.9   17.3   16.9    76   12.6   0.0   ---   0.00   0.0   ---   16.9   16.8   16.8   17.4   988.0  0.00   0.0   138     2.97    258     0.0  0.00   0.0   0.015   0.000   15.2    70    9.8   14.8    0.00   351    1    100.0   15 
 4/12/22  15.00   17.1   17.2   16.8    76   12.8   0.0   SSW   0.00   1.6   SSW   17.1   17.1   17.1   19.0   988.0  0.00   0.0   212     4.56    297     0.0  0.00   0.0   0.013   0.000   15.1    70    9.7   14.7    0.13   352    1    100.0   15 
 4/12/22  15.15   16.8   17.0   16.7    77   12.8   0.0   ---   0.00   0.0   ---   16.8   16.8   16.8   16.9  1005.5  0.00   0.0   105     2.26    176     0.0  0.00   0.0   0.016   0.000   15.1    70    9.6   14.7    0.00   350    1    100.0   15 
 4/12/22  15.30   16.7   16.8   16.7    79   13.1   3.2     S   0.80  14.5     S   16.7   16.8   16.8   16.2  1003.0  0.00   0.0    66     1.42    146     0.0  0.00   0.0   0.017   0.000   14.9    71    9.7   14.6    0.00   350    1    100.0   15 
 4/12/22  15.45   16.7   16.7   16.6    79   13.0   3.2     S   0.80  14.5     S   16.7   16.7   16.7   16.6  1003.0  0.00   0.0    89     1.91    142     0.0  0.00   0.0   0.017   0.000   14.9    71    9.7   14.6    0.00   351    1    100.0   15 
 4/12/22  16.00   16.5   16.7   16.5    80   13.0   6.4     S   1.61  16.1     S   16.5   16.6   16.6   15.3  1003.0  0.00   0.0    36     0.77     62     0.0  0.00   0.0   0.019   0.000   14.9    71    9.7   14.5    0.05   351    1    100.0   15 
 4/12/22  16.15   16.4   16.5   16.4    80   12.9   6.4     S   1.61  17.7   SSW   16.4   16.4   16.4   14.6   983.4  0.00   0.0    13     0.28     23     0.0  0.00   0.0   0.020   0.000   14.9    71    9.7   14.5    0.00   350    1    100.0   15 
 4/12/22  16.30   16.3   16.4   16.3    80   12.9   6.4     S   1.61  19.3   SSW   16.3   16.4   16.4   13.8   983.4  0.00   0.0     7     0.15      9     0.0  0.00   0.0   0.021   0.000   14.8    71    9.6   14.4    0.00   349    1    100.0   15 
 4/12/22  16.45   16.3   16.3   16.3    80   12.9   8.0   SSW   2.01  17.7     S   16.3   16.4   16.4   13.7   995.8  0.00   0.0     1     0.02      5     0.0  0.00   0.0   0.021   0.000   14.8    71    9.6   14.4    0.00   350    1    100.0   15 
 4/12/22  17.00   16.3   16.4   16.3    80   12.9   4.8     S   1.21  17.7     S   16.3   16.4   16.4   13.7   995.8  0.00   0.0     0     0.00      0     0.0  0.00   0.0   0.021   0.000   14.7    72    9.7   14.4    0.03   351    1    100.0   15 
 4/12/22  17.15   16.4   16.4   16.3    80   13.0   8.0     S   2.01  22.5     S   16.4   16.5   16.5   13.8   988.8  0.00   0.0     0     0.00      0     0.0  0.00   0.0   0.020   0.000   14.7    72    9.7   14.4    0.00   351    1    100.0   15 
 4/12/22  17.30   16.5   16.5   16.4    80   13.0   8.0     S   2.01  22.5     S   16.5   16.6   16.6   13.9   988.8  0.00   0.0     0     0.00      0     0.0  0.00   0.0   0.019   0.000   14.7    72    9.7   14.4    0.00   350    1    100.0   15 
 4/12/22  17.45   16.5   16.5   16.4    80   13.0   8.0     S   2.01  22.5     S   16.5   16.6   16.6   13.9   995.2  0.00   0.0     0     0.00      0     0.0  0.00   0.0   0.019   0.000   14.7    72    9.7   14.4    0.00   350    1    100.0   15 
 4/12/22  18.00   16.7   16.7   16.4    80   13.2   8.0     S   2.01  24.1   SSW   16.7   16.8   16.8   14.1   995.2  0.00   0.0     0     0.00      0     0.0  0.00   0.0   0.017   0.000   14.7    72    9.7   14.4    0.03   350    1    100.0   15 
 4/12/22  18.15   16.4   16.7   16.4    79   12.8   8.0     S   2.01  20.9     S   16.4   16.4   16.4   13.8   995.2  0.00   0.0     0     0.00      0     0.0  0.00   0.0   0.020   0.000   14.7    72    9.7   14.4    0.00   350    1    100.0   15 
 4/12/22  18.30   16.5   16.5   16.3    78   12.6   9.7     S   2.41  25.7   SSW   16.4   16.5   16.4   13.7   995.2  0.00   0.0     0     0.00      0     0.0  0.00   0.0   0.019   0.000   14.7    72    9.7   14.4    0.00   351    1    100.0   15 
 4/12/22  18.45   16.7   16.7   16.5    77   12.6   9.7     S   2.41  27.4     S   16.7   16.7   16.7   13.9   995.2  0.00   0.0     0     0.00      0     0.0  0.00   0.0   0.017   0.000   14.6    72    9.6   14.2    0.00   350    1    100.0   15 
 4/12/22  19.00   16.9   16.9   16.7    74   12.2  11.3     S   2.82  29.0     S   16.8   16.8   16.7   14.0   995.2  0.00   0.0     0     0.00      0     0.0  0.00   0.0   0.015   0.000   14.6    72    9.6   14.2    0.03   351    1    100.0   15 
 4/12/22  19.15   16.5   17.1   16.5    80   13.0   9.7     S   2.41  25.7    SE   16.4   16.6   16.5   13.8  1001.5  0.00   0.0     0     0.00      0     0.0  0.00   0.0   0.019   0.000   14.7    72    9.7   14.4    0.00   350    1    100.0   15 
 4/12/22  19.30   16.0   16.6   16.0    82   12.9  11.3     S   2.82  24.1   SSW   15.7   16.1   15.7   13.1  1001.5  0.25   0.0     0     0.00      0     0.0  0.00   0.0   0.024   0.000   14.7    72    9.7   14.4    0.00   351    1    100.0   15 
 4/12/22  19.45   16.4   16.4   16.0    77   12.3  12.9     S   3.22  32.2     S   15.7   16.3   15.7   13.1  1001.5  0.00   0.0     0     0.00      0     0.0  0.00   0.0   0.020   0.000   14.7    73    9.9   14.4    0.00   351    1    100.0   15 
 4/12/22  20.00   16.4   16.6   16.3    78   12.6  11.3     S   2.82  27.4   SSW   16.2   16.4   16.2   13.6  1001.5  0.00   0.0     0     0.00      0     0.0  0.00   0.0   0.020   0.000   14.7    73    9.9   14.4    0.05   349    1    100.0   15 
 4/12/22  20.15   16.5   16.5   16.4    77   12.5  14.5   SSW   3.62  30.6    SW   15.4   16.4   15.3   12.8   990.7  0.00   0.0     0     0.00      0     0.0  0.00   0.0   0.019   0.000   14.7    73    9.9   14.4    0.00   351    1    100.0   15 
 4/12/22  20.30   16.5   16.6   16.4    76   12.3  12.9   SSW   3.22  25.7     S   15.8   16.4   15.7   13.2   990.7  0.00   0.0     0     0.00      0     0.0  0.00   0.0   0.019   0.000   14.7    73    9.9   14.4    0.00   352    1    100.0   15 
 4/12/22  20.45   16.7   16.7   16.6    75   12.2  12.9   SSW   3.22  27.4    SW   16.1   16.6   15.9   13.4   996.2  0.00   0.0     0     0.00      0     0.0  0.00   0.0   0.017   0.000   14.7    73    9.9   14.4    0.00   351    1    100.0   15 
 4/12/22  21.00   16.8   16.8   16.7    78   12.9   9.7     S   2.41  25.7   SSW   16.8   16.8   16.8   14.2   996.2  0.00   0.0     0     0.00      0     0.0  0.00   0.0   0.016   0.000   14.7    73    9.9   14.4    0.05   350    1    100.0   15 
 4/12/22  21.15   16.8   16.8   16.7    79   13.1   9.7     S   2.41  24.1   SSW   16.8   16.8   16.8   14.2   996.2  0.00   0.0     0     0.00      0     0.0  0.00   0.0   0.016   0.000   14.7    73    9.9   14.4    0.00   351    1    100.0   15 
 4/12/22  21.30   16.9   16.9   16.8    78   13.0  12.9     S   3.22  37.0     S   16.3   16.9   16.4   13.8   996.2  0.00   0.0     0     0.00      0     0.0  0.00   0.0   0.015   0.000   14.7    73    9.9   14.4    0.00   351    1    100.0   15 
 4/12/22  21.45   16.9   16.9   16.9    78   13.1  12.9     S   3.22  30.6   SSE   16.4   17.0   16.4   13.9   996.1  0.00   0.0     0     0.00      0     0.0  0.00   0.0   0.014   0.000   14.7    73    9.9   14.4    0.00   350    1    100.0   15 
 4/12/22  22.00   16.9   16.9   16.9    79   13.3  12.9     S   3.22  29.0     S   16.4   17.1   16.5   13.9   996.1  0.00   0.0     0     0.00      0     0.0  0.00   0.0   0.014   0.000   14.7    73    9.9   14.4    0.05   351    1    100.0   15 
 4/12/22  22.15   16.8   16.9   16.8    79   13.1  12.9   SSW   3.22  30.6   SSW   16.2   16.8   16.2   13.7   996.1  0.00   0.0     0     0.00      0     0.0  0.00   0.0   0.016   0.000   14.7    73    9.9   14.4    0.00   348    1    100.0   15 
 4/12/22  22.30   16.7   16.8   16.7    78   12.8  11.3   SSW   2.82  32.2     S   16.5   16.7   16.5   13.9   996.1  0.00   0.0     0     0.00      0     0.0  0.00   0.0   0.017   0.000   14.7    74   10.1   14.4    0.00   352    1    100.0   15 
 4/12/22  22.45   16.7   16.8   16.6    76   12.4  12.9     S   3.22  33.8    SE   16.1   16.6   16.0   13.4   996.1  0.00   0.0     0     0.00      0     0.0  0.00   0.0   0.017   0.000   14.7    74   10.1   14.4    0.00   351    1    100.0   15 
 4/12/22  23.00   16.6   16.7   16.6    76   12.4   9.7   SSW   2.41  29.0   SSW   16.6   16.6   16.6   13.8   996.1  0.00   0.0     0     0.00      0     0.0  0.00   0.0   0.018   0.000   14.7    74   10.1   14.4    0.05   351    1    100.0   15 
 4/12/22  23.15   16.7   16.7   16.6    76   12.4   9.7   SSW   2.41  24.1   SSW   16.7   16.6   16.6   13.9   996.1  0.00   0.0     0     0.00      0     0.0  0.00   0.0   0.017   0.000   14.7    74   10.1   14.4    0.00   351    1    100.0   15 
 4/12/22  23.30   16.8   16.8   16.6    76   12.6  12.9   SSW   3.22  29.0   WSW   16.3   16.8   16.2   13.7   996.1  0.00   0.0     0     0.00      0     0.0  0.00   0.0   0.016   0.000   14.7    74   10.1   14.4    0.00   350    1    100.0   15 
 4/12/22  23.45   16.8   16.8   16.7    77   12.7   8.0   SSW   2.01  22.5     S   16.8   16.8   16.8   14.1   990.3  0.00   0.0     0     0.00      0     0.0  0.00   0.0   0.016   0.000   14.7    74   10.1   14.4    0.00   351    1    100.0   15 
 5/12/22  00.00   16.8   16.8   16.7    77   12.7   6.4   SSW   1.61  20.9     S   16.8   16.8   16.8   14.1  1007.9  0.00   0.0     0     0.00      0     0.0  0.00   0.0   0.016   0.000   14.7    74   10.1   14.4    0.05   350    1    100.0   15 
 5/12/22   0.15   16.8   16.8   16.7    77   12.8   6.4   SSW   1.61  22.5   SSE   16.8   16.8   16.8   14.1  1007.9  0.00   0.0     0     0.00      0     0.0  0.00   0.0   0.016   0.000   14.7    74   10.1   14.4    0.00   349    1    100.0   15 
 5/12/22   0.30   16.9   16.9   16.8    75   12.4   8.0   SSW   2.01  25.7   SSE   16.9   16.8   16.8   14.1  1007.9  0.00   0.0     0     0.00      0     0.0  0.00   0.0   0.015   0.000   14.7    74   10.1   14.4    0.00   350    1    100.0   15 
 5/12/22   0.45   16.7   16.9   16.7    76   12.5   1.6   SSW   0.40  16.1   WSW   16.7   16.7   16.7   13.9  1003.3  0.00   0.0     0     0.00      0     0.0  0.00   0.0   0.017   0.000   14.7    74   10.1   14.4    0.00   350    1    100.0   15 
 5/12/22   1.00   16.8   16.8   16.6    76   12.6   6.4   SSW   1.61  20.9    SW   16.8   16.8   16.8   14.1  1003.3  0.00   0.0     0     0.00      0     0.0  0.00   0.0   0.016   0.000   14.7    74   10.1   14.4    0.03   351    1    100.0   15 
 5/12/22   1.15   17.0   17.1   16.8    75   12.5   9.7   SSW   2.41  30.6   SSW   17.0   16.9   16.9   14.2   990.6  0.00   0.0     0     0.00      0     0.0  0.00   0.0   0.014   0.000   14.7    74   10.1   14.4    0.00   349    1    100.0   15 
 5/12/22   1.30   17.0   17.1   16.9    75   12.5   6.4   SSW   1.61  19.3     S   17.0   16.9   16.9   14.2   993.6  0.00   0.0     0     0.00      0     0.0  0.00   0.0   0.014   0.000   14.7    74   10.1   14.4    0.00   351    1    100.0   15 
 5/12/22   1.45   16.9   17.1   16.9    76   12.7   8.0   SSW   2.01  22.5   SSW   16.9   16.9   16.9   14.2   990.1  0.00   0.0     0     0.00      0     0.0  0.00   0.0   0.014   0.000   14.8    74   10.2   14.5    0.00   351    1    100.0   15 
 5/12/22   2.00   17.0   17.1   16.9    77   12.9   8.0     S   2.01  27.4   SSW   17.0   17.0   17.0   14.3   990.1  0.00   0.0     0     0.00      0     0.0  0.00   0.0   0.014   0.000   14.7    74   10.1   14.4    0.00   350    1    100.0   15 
 5/12/22   2.15   16.9   17.1   16.9    78   13.1   6.4   SSW   1.61  17.7    SW   16.9   17.0   17.0   14.3   990.1  0.00   0.0     0     0.00      0     0.0  0.00   0.0   0.014   0.000   14.7    74   10.1   14.4    0.03   351    1    100.0   15 
 5/12/22   2.30   16.9   16.9   16.9    78   13.1   6.4   SSW   1.61  16.1   SSW   16.9   17.0   17.0   14.3   990.1  0.00   0.0     0     0.00      0     0.0  0.00   0.0   0.014   0.000   14.8    74   10.2   14.5    0.00   351    1    100.0   15 
 5/12/22   2.45   16.9   16.9   16.8    79   13.2   6.4   SSW   1.61  12.9     S   16.9   17.0   17.0   14.3   990.1  0.00   0.0     0     0.00      0     0.0  0.00   0.0   0.015   0.000   14.8    74   10.2   14.5    0.00   350    1    100.0   15 
 5/12/22   3.00   16.9   16.9   16.8    79   13.2   6.4   SSW   1.61  14.5    SW   16.9   17.0   17.0   14.3   990.1  0.00   0.0     0     0.00      0     0.0  0.00   0.0   0.015   0.000   14.8    74   10.2   14.5    0.03   351    1    100.0   15 
 5/12/22   3.15   16.9   16.9   16.8    78   13.1   6.4   SSW   1.61  17.7     S   16.9   17.0   17.0   14.3  1012.5  0.00   0.0     0     0.00      0     0.0  0.00   0.0   0.014   0.000   14.8    74   10.2   14.5    0.00   350    1    100.0   15 
 5/12/22   3.30   16.9   17.0   16.9    79   13.3   8.0   SSW   2.01  22.5     S   16.9   17.1   17.1   14.4  1012.5  0.00   0.0     0     0.00      0     0.0  0.00   0.0   0.014   0.000   14.8    74   10.2   14.5    0.00   350    1    100.0   15 
 5/12/22   3.45   16.8   16.9   16.8    79   13.2   9.7     S   2.41  24.1    SW   16.8   16.9   16.9   14.2  1012.5  0.00   0.0     0     0.00      0     0.0  0.00   0.0   0.016   0.000   14.8    74   10.2   14.5    0.00   351    1    100.0   15 
 5/12/22   4.00   16.8   16.9   16.8    79   13.2  11.3   SSW   2.82  22.5     S   16.7   16.9   16.8   14.2  1012.5  0.00   0.0     0     0.00      0     0.0  0.00   0.0   0.016   0.000   14.8    74   10.2   14.5    0.03   351    1    100.0   15 
 5/12/22   4.15   16.8   16.8   16.8    80   13.3   8.0   SSW   2.01  22.5     S   16.8   16.9   16.9   14.2  1012.5  0.00   0.0     0     0.00      0     0.0  0.00   0.0   0.016   0.000   14.8    75   10.4   14.5    0.00   350    1    100.0   15 
 5/12/22   4.30   16.8   16.8   16.7    80   13.3   6.4   SSW   1.61  19.3   SSW   16.8   16.9   16.9   14.2  1008.2  0.00   0.0     0     0.00      0     0.0  0.00   0.0   0.016   0.000   14.8    75   10.4   14.5    0.00   350    1    100.0   15 
 5/12/22   4.45   16.7   16.8   16.7    80   13.3   9.7   SSW   2.41  25.7   SSW   16.7   16.8   16.8   14.2  1008.2  0.00   0.0     0     0.00      0     0.0  0.00   0.0   0.017   0.000   14.8    75   10.4   14.5    0.00   350    1    100.0   15 
 5/12/22   5.00   16.8   16.8   16.7    80   13.4  11.3   SSW   2.82  32.2     S   16.7   16.9   16.8   14.2  1008.2  0.00   0.0     0     0.00      0     0.0  0.00   0.0   0.016   0.000   14.8    75   10.4   14.5    0.03   350    1    100.0   15 
 5/12/22   5.15   16.9   16.9   16.8    80   13.4   9.7   SSW   2.41  24.1     S   16.9   17.0   17.0   14.3  1008.2  0.00   0.0     0     0.00      0     0.0  0.00   0.0   0.015   0.000   14.8    75   10.4   14.5    0.00   351    1    100.0   15 
 5/12/22   5.30   16.7   16.9   16.7    80   13.3   9.7   SSW   2.41  24.1   SSW   16.7   16.8   16.8   14.2   989.1  0.00   0.0     0     0.00      0     0.0  0.00   0.0   0.017   0.000   14.8    75   10.4   14.5    0.00   352    1    100.0   15 
 5/12/22   5.45   16.6   16.8   16.6    80   13.1   6.4   SSW   1.61  20.9    SW   16.6   16.7   16.7   14.1   989.1  0.00   0.0     0     0.00      0     0.0  0.00   0.0   0.018   0.000   14.9    75   10.5   14.6    0.00   351    1    100.0   15 
 5/12/22   6.00   16.5   16.7   16.5    80   13.0   1.6    SW   0.40  20.9   SSW   16.5   16.6   16.6   13.9   989.1  0.00   0.0     0     0.00      0     0.0  0.00   0.0   0.019   0.000   14.9    75   10.5   14.6    0.03   351    1    100.0   15 
 5/12/22   6.15   16.1   16.5   16.1    80   12.6   1.6     N   0.40  14.5   NNE   16.1   16.1   16.1   13.3  1010.3  0.00   0.0     0     0.00      0     0.0  0.00   0.0   0.024   0.000   14.9    75   10.5   14.6    0.00   350    1    100.0   15 
 5/12/22   6.30   15.2   16.1   15.2    81   11.9   8.0   NNE   2.01  17.7   NNE   15.1   15.1   15.1   12.3  1010.3  0.00   0.0     0     0.00      0     0.0  0.00   0.0   0.033   0.000   14.8    75   10.4   14.5    0.00   351    1    100.0   15 
 5/12/22   6.45   14.8   15.2   14.8    82   11.7   9.7   NNE   2.41  19.3   NNE   14.4   14.7   14.3   11.6  1010.3  0.00   0.0     0     0.00      0     0.0  0.00   0.0   0.037   0.000   14.9    75   10.5   14.6    0.00   350    1    100.0   15 
 5/12/22   7.00   14.6   14.8   14.6    83   11.8   6.4   NNE   1.61  16.1    NE   14.6   14.6   14.6   11.8   982.8  0.00   0.0     0     0.00      0     0.0  0.00   0.0   0.039   0.000   14.9    75   10.5   14.6    0.03   351    1    100.0   15 
 5/12/22   7.15   14.2   14.6   14.2    84   11.6   3.2   NNE   0.80   8.0   NNE   14.2   14.2   14.2   11.4   982.8  0.00   0.0     0     0.00      0     0.0  0.00   0.0   0.043   0.000   14.9    75   10.5   14.6    0.00   351    1    100.0   15 
 5/12/22   7.30   14.1   14.2   14.1    85   11.6   3.2   NNW   0.80   8.0   NNW   14.1   14.1   14.1   11.2   982.8  0.00   0.0     0     0.00      0     0.0  0.00   0.0   0.044   0.000   14.8    75   10.4   14.5    0.00   351    1    100.0   15 
 5/12/22   7.45   14.1   14.2   14.1    85   11.6   4.8   NNW   1.21  11.3    NW   14.1   14.1   14.1   11.3   982.8  0.00   0.0     3     0.06      7     0.0  0.00   0.0   0.044   0.000   14.8    75   10.4   14.5    0.00   351    1    100.0   15 
 5/12/22   8.00   14.0   14.1   14.0    86   11.7   3.2     N   0.80   9.7   NNE   14.0   13.9   13.9   11.3  1003.1  0.00   0.0    10     0.22     14     0.0  0.00   0.0   0.045   0.000   14.9    75   10.5   14.6    0.00   350    1    100.0   15 
 5/12/22   8.15   14.3   14.3   14.0    86   12.0   3.2   NNW   0.80   9.7   NNW   14.3   14.2   14.2   11.8  1003.1  0.00   0.0    22     0.47     26     0.0  0.00   0.0   0.042   0.000   14.8    75   10.4   14.5    0.00   349    1    100.0   15 
 5/12/22   8.30   14.4   14.4   14.2    86   12.1   3.2     N   0.80   8.0   NNW   14.4   14.3   14.3   12.1  1003.1  0.00   0.0    38     0.82     51     0.0  0.00   0.0   0.041   0.000   14.8    75   10.4   14.5    0.00   352    1    100.0   15 
 5/12/22   8.45   14.4   14.4   14.3    86   12.1   3.2     N   0.80   6.4     N   14.4   14.3   14.3   12.2  1003.1  0.00   0.0    45     0.97     53     0.0  0.00   0.0   0.041   0.000   14.8    75   10.4   14.5    0.00   350    1    100.0   15 
 5/12/22   9.00   14.6   14.6   14.4    86   12.3   3.2     N   0.80   8.0    NW   14.6   14.6   14.6   13.6  1003.1  0.00   0.0    47     1.01     54     0.0  0.00   0.0   0.039   0.000   14.9    75   10.5   14.6    0.03   350    1    100.0   15 
 5/12/22   9.15   14.9   14.9   14.6    85   12.4   3.2   NNW   0.80   6.4   NNW   14.9   14.9   14.9   13.8  1003.1  0.00   0.0    45     0.97     54     0.0  0.00   0.0   0.036   0.000   14.9    75   10.5   14.6    0.00   348    1    100.0   15 
 5/12/22   9.30   15.1   15.1   14.8    85   12.6   1.6   NNW   0.40   6.4   NNW   15.1   15.1   15.1   13.8  1003.1  0.00   0.0    39     0.84     40     0.0  0.00   0.0   0.034   0.000   14.9    75   10.5   14.6    0.00   351    1    100.0   15 
 5/12/22   9.45   15.1   15.1   15.0    85   12.6   0.0     N   0.00   3.2   NNW   15.1   15.1   15.1   13.8  1003.1  0.00   0.0    40     0.86     47     0.0  0.00   0.0   0.034   0.000   14.8    75   10.4   14.5    0.00   351    1    100.0   15 
© www.elbaexplorer.com